<?xml version="1.0" encoding="UTF-8" standalone="no" ?>
<gpx xmlns="http://www.topografix.com/GPX/1/1" xmlns:xsi="http://www.w3.org/2001/XMLSchema-instance" xsi:schemaLocation="http://www.topografix.com/GPX/1/1 http://www.topografix.com/GPX/1/1/gpx.xsd" version="1.1" creator="VisuGPX - https://www.visugpx.com">
  <metadata>
    <name>sortie sur véloroute</name>
    <desc><![CDATA[Petite sortie vélo sur une portion de la véloroute Nantes-Budapest]]></desc>
  </metadata>
  <trk>
    <name><![CDATA[voie verte st jean de losne]]></name>
    <trkseg>
      <trkpt lat="47.06027" lon="5.41276">
        <ele>186</ele>
        <time>2009-08-30T14:59:40Z</time>
      </trkpt>
      <trkpt lat="47.06026" lon="5.41277">
        <ele>189</ele>
        <time>2009-08-30T14:59:51Z</time>
      </trkpt>
      <trkpt lat="47.06025" lon="5.41281">
        <ele>190</ele>
        <time>2009-08-30T14:59:57Z</time>
      </trkpt>
      <trkpt lat="47.06016" lon="5.41283">
        <ele>190</ele>
        <time>2009-08-30T15:00:02Z</time>
      </trkpt>
      <trkpt lat="47.05974" lon="5.41263">
        <ele>193</ele>
        <time>2009-08-30T15:00:14Z</time>
      </trkpt>
      <trkpt lat="47.05967" lon="5.41231">
        <ele>192</ele>
        <time>2009-08-30T15:00:21Z</time>
      </trkpt>
      <trkpt lat="47.05966" lon="5.41132">
        <ele>194</ele>
        <time>2009-08-30T15:00:36Z</time>
      </trkpt>
      <trkpt lat="47.05967" lon="5.4103">
        <ele>196</ele>
        <time>2009-08-30T15:00:52Z</time>
      </trkpt>
      <trkpt lat="47.05967" lon="5.40923">
        <ele>196</ele>
        <time>2009-08-30T15:01:07Z</time>
      </trkpt>
      <trkpt lat="47.05967" lon="5.40893">
        <ele>196</ele>
        <time>2009-08-30T15:01:11Z</time>
      </trkpt>
      <trkpt lat="47.05968" lon="5.40783">
        <ele>195</ele>
        <time>2009-08-30T15:01:26Z</time>
      </trkpt>
      <trkpt lat="47.05965" lon="5.4071">
        <ele>195</ele>
        <time>2009-08-30T15:01:39Z</time>
      </trkpt>
      <trkpt lat="47.05964" lon="5.40706">
        <ele>194</ele>
        <time>2009-08-30T15:02:00Z</time>
      </trkpt>
      <trkpt lat="47.05964" lon="5.40705">
        <ele>195</ele>
        <time>2009-08-30T15:02:04Z</time>
      </trkpt>
      <trkpt lat="47.05965" lon="5.40672">
        <ele>194</ele>
        <time>2009-08-30T15:02:15Z</time>
      </trkpt>
      <trkpt lat="47.05968" lon="5.40654">
        <ele>195</ele>
        <time>2009-08-30T15:02:41Z</time>
      </trkpt>
      <trkpt lat="47.05969" lon="5.40578">
        <ele>195</ele>
        <time>2009-08-30T15:02:53Z</time>
      </trkpt>
      <trkpt lat="47.05963" lon="5.40539">
        <ele>195</ele>
        <time>2009-08-30T15:03:00Z</time>
      </trkpt>
      <trkpt lat="47.05964" lon="5.40456">
        <ele>195</ele>
        <time>2009-08-30T15:03:12Z</time>
      </trkpt>
      <trkpt lat="47.05972" lon="5.40407">
        <ele>196</ele>
        <time>2009-08-30T15:03:18Z</time>
      </trkpt>
      <trkpt lat="47.06012" lon="5.40282">
        <ele>196</ele>
        <time>2009-08-30T15:03:34Z</time>
      </trkpt>
      <trkpt lat="47.06037" lon="5.40203">
        <ele>195</ele>
        <time>2009-08-30T15:03:48Z</time>
      </trkpt>
      <trkpt lat="47.06049" lon="5.40168">
        <ele>195</ele>
        <time>2009-08-30T15:03:56Z</time>
      </trkpt>
      <trkpt lat="47.06076" lon="5.4009">
        <ele>195</ele>
        <time>2009-08-30T15:04:10Z</time>
      </trkpt>
      <trkpt lat="47.06114" lon="5.39983">
        <ele>196</ele>
        <time>2009-08-30T15:04:28Z</time>
      </trkpt>
      <trkpt lat="47.06151" lon="5.39878">
        <ele>196</ele>
        <time>2009-08-30T15:04:46Z</time>
      </trkpt>
      <trkpt lat="47.06172" lon="5.39814">
        <ele>196</ele>
        <time>2009-08-30T15:04:57Z</time>
      </trkpt>
      <trkpt lat="47.06198" lon="5.39741">
        <ele>196</ele>
        <time>2009-08-30T15:05:11Z</time>
      </trkpt>
      <trkpt lat="47.0623" lon="5.39642">
        <ele>196</ele>
        <time>2009-08-30T15:05:28Z</time>
      </trkpt>
      <trkpt lat="47.06264" lon="5.39542">
        <ele>197</ele>
        <time>2009-08-30T15:05:45Z</time>
      </trkpt>
      <trkpt lat="47.06297" lon="5.39448">
        <ele>196</ele>
        <time>2009-08-30T15:06:01Z</time>
      </trkpt>
      <trkpt lat="47.06313" lon="5.39403">
        <ele>196</ele>
        <time>2009-08-30T15:06:12Z</time>
      </trkpt>
      <trkpt lat="47.06319" lon="5.39385">
        <ele>196</ele>
        <time>2009-08-30T15:06:41Z</time>
      </trkpt>
      <trkpt lat="47.06349" lon="5.39302">
        <ele>197</ele>
        <time>2009-08-30T15:06:54Z</time>
      </trkpt>
      <trkpt lat="47.0639" lon="5.39178">
        <ele>197</ele>
        <time>2009-08-30T15:07:12Z</time>
      </trkpt>
      <trkpt lat="47.06431" lon="5.39061">
        <ele>197</ele>
        <time>2009-08-30T15:07:29Z</time>
      </trkpt>
      <trkpt lat="47.06436" lon="5.39048">
        <ele>197</ele>
        <time>2009-08-30T15:07:31Z</time>
      </trkpt>
      <trkpt lat="47.06461" lon="5.38976">
        <ele>197</ele>
        <time>2009-08-30T15:07:42Z</time>
      </trkpt>
      <trkpt lat="47.06466" lon="5.38957">
        <ele>197</ele>
        <time>2009-08-30T15:07:45Z</time>
      </trkpt>
      <trkpt lat="47.06492" lon="5.38878">
        <ele>197</ele>
        <time>2009-08-30T15:08:00Z</time>
      </trkpt>
      <trkpt lat="47.06505" lon="5.3884">
        <ele>197</ele>
        <time>2009-08-30T15:08:07Z</time>
      </trkpt>
      <trkpt lat="47.06513" lon="5.38813">
        <ele>197</ele>
        <time>2009-08-30T15:08:12Z</time>
      </trkpt>
      <trkpt lat="47.06538" lon="5.38752">
        <ele>196</ele>
        <time>2009-08-30T15:08:26Z</time>
      </trkpt>
      <trkpt lat="47.0655" lon="5.3871">
        <ele>195</ele>
        <time>2009-08-30T15:08:34Z</time>
      </trkpt>
      <trkpt lat="47.06577" lon="5.3863">
        <ele>194</ele>
        <time>2009-08-30T15:08:48Z</time>
      </trkpt>
      <trkpt lat="47.06587" lon="5.38601">
        <ele>194</ele>
        <time>2009-08-30T15:08:53Z</time>
      </trkpt>
      <trkpt lat="47.06602" lon="5.38556">
        <ele>194</ele>
        <time>2009-08-30T15:09:01Z</time>
      </trkpt>
      <trkpt lat="47.06626" lon="5.38481">
        <ele>194</ele>
        <time>2009-08-30T15:09:15Z</time>
      </trkpt>
      <trkpt lat="47.06663" lon="5.38368">
        <ele>195</ele>
        <time>2009-08-30T15:09:33Z</time>
      </trkpt>
      <trkpt lat="47.06709" lon="5.38231">
        <ele>195</ele>
        <time>2009-08-30T15:09:54Z</time>
      </trkpt>
      <trkpt lat="47.06734" lon="5.38151">
        <ele>195</ele>
        <time>2009-08-30T15:10:08Z</time>
      </trkpt>
      <trkpt lat="47.06739" lon="5.38136">
        <ele>194</ele>
        <time>2009-08-30T15:10:11Z</time>
      </trkpt>
      <trkpt lat="47.06754" lon="5.3809">
        <ele>195</ele>
        <time>2009-08-30T15:10:19Z</time>
      </trkpt>
      <trkpt lat="47.06784" lon="5.38004">
        <ele>194</ele>
        <time>2009-08-30T15:10:35Z</time>
      </trkpt>
      <trkpt lat="47.06808" lon="5.37943">
        <ele>194</ele>
        <time>2009-08-30T15:10:45Z</time>
      </trkpt>
      <trkpt lat="47.06853" lon="5.37815">
        <ele>194</ele>
        <time>2009-08-30T15:11:03Z</time>
      </trkpt>
      <trkpt lat="47.06868" lon="5.37767">
        <ele>194</ele>
        <time>2009-08-30T15:11:10Z</time>
      </trkpt>
      <trkpt lat="47.06909" lon="5.37653">
        <ele>194</ele>
        <time>2009-08-30T15:11:27Z</time>
      </trkpt>
      <trkpt lat="47.06932" lon="5.3758">
        <ele>194</ele>
        <time>2009-08-30T15:11:40Z</time>
      </trkpt>
      <trkpt lat="47.06958" lon="5.375">
        <ele>194</ele>
        <time>2009-08-30T15:11:53Z</time>
      </trkpt>
      <trkpt lat="47.07002" lon="5.37376">
        <ele>194</ele>
        <time>2009-08-30T15:12:13Z</time>
      </trkpt>
      <trkpt lat="47.07049" lon="5.37246">
        <ele>194</ele>
        <time>2009-08-30T15:12:34Z</time>
      </trkpt>
      <trkpt lat="47.07086" lon="5.3713">
        <ele>194</ele>
        <time>2009-08-30T15:12:53Z</time>
      </trkpt>
      <trkpt lat="47.07088" lon="5.37125">
        <ele>194</ele>
        <time>2009-08-30T15:12:54Z</time>
      </trkpt>
      <trkpt lat="47.07124" lon="5.37026">
        <ele>194</ele>
        <time>2009-08-30T15:13:10Z</time>
      </trkpt>
      <trkpt lat="47.07134" lon="5.37009">
        <ele>194</ele>
        <time>2009-08-30T15:13:15Z</time>
      </trkpt>
      <trkpt lat="47.07138" lon="5.36997">
        <ele>194</ele>
        <time>2009-08-30T15:13:21Z</time>
      </trkpt>
      <trkpt lat="47.07155" lon="5.36941">
        <ele>193</ele>
        <time>2009-08-30T15:13:36Z</time>
      </trkpt>
      <trkpt lat="47.07157" lon="5.36935">
        <ele>193</ele>
        <time>2009-08-30T15:13:37Z</time>
      </trkpt>
      <trkpt lat="47.07193" lon="5.36823">
        <ele>192</ele>
        <time>2009-08-30T15:13:56Z</time>
      </trkpt>
      <trkpt lat="47.07228" lon="5.36714">
        <ele>193</ele>
        <time>2009-08-30T15:14:14Z</time>
      </trkpt>
      <trkpt lat="47.07251" lon="5.36644">
        <ele>193</ele>
        <time>2009-08-30T15:14:26Z</time>
      </trkpt>
      <trkpt lat="47.07282" lon="5.36553">
        <ele>193</ele>
        <time>2009-08-30T15:14:41Z</time>
      </trkpt>
      <trkpt lat="47.07312" lon="5.36458">
        <ele>192</ele>
        <time>2009-08-30T15:14:56Z</time>
      </trkpt>
      <trkpt lat="47.07314" lon="5.36452">
        <ele>192</ele>
        <time>2009-08-30T15:14:57Z</time>
      </trkpt>
      <trkpt lat="47.07379" lon="5.36391">
        <ele>192</ele>
        <time>2009-08-30T15:15:13Z</time>
      </trkpt>
      <trkpt lat="47.07453" lon="5.36344">
        <ele>191</ele>
        <time>2009-08-30T15:15:29Z</time>
      </trkpt>
      <trkpt lat="47.07534" lon="5.36297">
        <ele>192</ele>
        <time>2009-08-30T15:15:46Z</time>
      </trkpt>
      <trkpt lat="47.0761" lon="5.36246">
        <ele>192</ele>
        <time>2009-08-30T15:16:03Z</time>
      </trkpt>
      <trkpt lat="47.0767" lon="5.36208">
        <ele>192</ele>
        <time>2009-08-30T15:16:16Z</time>
      </trkpt>
      <trkpt lat="47.07747" lon="5.36168">
        <ele>191</ele>
        <time>2009-08-30T15:16:32Z</time>
      </trkpt>
      <trkpt lat="47.07803" lon="5.36132">
        <ele>192</ele>
        <time>2009-08-30T15:16:44Z</time>
      </trkpt>
      <trkpt lat="47.07811" lon="5.36126">
        <ele>192</ele>
        <time>2009-08-30T15:16:46Z</time>
      </trkpt>
      <trkpt lat="47.07839" lon="5.3611">
        <ele>192</ele>
        <time>2009-08-30T15:16:52Z</time>
      </trkpt>
      <trkpt lat="47.07849" lon="5.36104">
        <ele>192</ele>
        <time>2009-08-30T15:16:54Z</time>
      </trkpt>
      <trkpt lat="47.07908" lon="5.36066">
        <ele>192</ele>
        <time>2009-08-30T15:17:07Z</time>
      </trkpt>
      <trkpt lat="47.07979" lon="5.36019">
        <ele>192</ele>
        <time>2009-08-30T15:17:22Z</time>
      </trkpt>
      <trkpt lat="47.08037" lon="5.35986">
        <ele>192</ele>
        <time>2009-08-30T15:17:35Z</time>
      </trkpt>
      <trkpt lat="47.08104" lon="5.35947">
        <ele>192</ele>
        <time>2009-08-30T15:17:49Z</time>
      </trkpt>
      <trkpt lat="47.08182" lon="5.35897">
        <ele>193</ele>
        <time>2009-08-30T15:18:06Z</time>
      </trkpt>
      <trkpt lat="47.08198" lon="5.35888">
        <ele>193</ele>
        <time>2009-08-30T15:18:09Z</time>
      </trkpt>
      <trkpt lat="47.08272" lon="5.35849">
        <ele>193</ele>
        <time>2009-08-30T15:18:24Z</time>
      </trkpt>
      <trkpt lat="47.08335" lon="5.35805">
        <ele>193</ele>
        <time>2009-08-30T15:18:37Z</time>
      </trkpt>
      <trkpt lat="47.08339" lon="5.358">
        <ele>193</ele>
        <time>2009-08-30T15:18:38Z</time>
      </trkpt>
      <trkpt lat="47.08354" lon="5.35776">
        <ele>193</ele>
        <time>2009-08-30T15:18:42Z</time>
      </trkpt>
      <trkpt lat="47.08369" lon="5.35736">
        <ele>192</ele>
        <time>2009-08-30T15:18:48Z</time>
      </trkpt>
      <trkpt lat="47.08387" lon="5.35644">
        <ele>194</ele>
        <time>2009-08-30T15:19:02Z</time>
      </trkpt>
      <trkpt lat="47.08388" lon="5.35639">
        <ele>194</ele>
        <time>2009-08-30T15:19:03Z</time>
      </trkpt>
      <trkpt lat="47.08393" lon="5.35613">
        <ele>195</ele>
        <time>2009-08-30T15:19:12Z</time>
      </trkpt>
      <trkpt lat="47.08398" lon="5.35589">
        <ele>194</ele>
        <time>2009-08-30T15:19:16Z</time>
      </trkpt>
      <trkpt lat="47.08414" lon="5.35506">
        <ele>193</ele>
        <time>2009-08-30T15:19:27Z</time>
      </trkpt>
      <trkpt lat="47.08428" lon="5.35412">
        <ele>193</ele>
        <time>2009-08-30T15:19:41Z</time>
      </trkpt>
      <trkpt lat="47.08451" lon="5.35289">
        <ele>193</ele>
        <time>2009-08-30T15:19:59Z</time>
      </trkpt>
      <trkpt lat="47.08469" lon="5.35185">
        <ele>193</ele>
        <time>2009-08-30T15:20:14Z</time>
      </trkpt>
      <trkpt lat="47.08487" lon="5.35074">
        <ele>193</ele>
        <time>2009-08-30T15:20:30Z</time>
      </trkpt>
      <trkpt lat="47.08503" lon="5.34983">
        <ele>193</ele>
        <time>2009-08-30T15:20:44Z</time>
      </trkpt>
      <trkpt lat="47.0852" lon="5.34888">
        <ele>193</ele>
        <time>2009-08-30T15:20:59Z</time>
      </trkpt>
      <trkpt lat="47.08535" lon="5.34804">
        <ele>193</ele>
        <time>2009-08-30T15:21:11Z</time>
      </trkpt>
      <trkpt lat="47.08554" lon="5.34704">
        <ele>193</ele>
        <time>2009-08-30T15:21:26Z</time>
      </trkpt>
      <trkpt lat="47.0857" lon="5.34602">
        <ele>193</ele>
        <time>2009-08-30T15:21:41Z</time>
      </trkpt>
      <trkpt lat="47.08576" lon="5.34572">
        <ele>193</ele>
        <time>2009-08-30T15:21:46Z</time>
      </trkpt>
      <trkpt lat="47.0858" lon="5.34539">
        <ele>193</ele>
        <time>2009-08-30T15:21:51Z</time>
      </trkpt>
      <trkpt lat="47.08594" lon="5.34457">
        <ele>194</ele>
        <time>2009-08-30T15:22:04Z</time>
      </trkpt>
      <trkpt lat="47.08611" lon="5.3436">
        <ele>193</ele>
        <time>2009-08-30T15:22:19Z</time>
      </trkpt>
      <trkpt lat="47.08617" lon="5.34336">
        <ele>193</ele>
        <time>2009-08-30T15:22:23Z</time>
      </trkpt>
      <trkpt lat="47.08619" lon="5.34318">
        <ele>193</ele>
        <time>2009-08-30T15:22:26Z</time>
      </trkpt>
      <trkpt lat="47.08627" lon="5.34271">
        <ele>193</ele>
        <time>2009-08-30T15:22:36Z</time>
      </trkpt>
      <trkpt lat="47.08635" lon="5.34231">
        <ele>194</ele>
        <time>2009-08-30T15:22:42Z</time>
      </trkpt>
      <trkpt lat="47.08659" lon="5.34108">
        <ele>193</ele>
        <time>2009-08-30T15:23:00Z</time>
      </trkpt>
      <trkpt lat="47.08681" lon="5.33996">
        <ele>194</ele>
        <time>2009-08-30T15:23:17Z</time>
      </trkpt>
      <trkpt lat="47.08698" lon="5.33894">
        <ele>193</ele>
        <time>2009-08-30T15:23:33Z</time>
      </trkpt>
      <trkpt lat="47.08719" lon="5.33775">
        <ele>193</ele>
        <time>2009-08-30T15:23:51Z</time>
      </trkpt>
      <trkpt lat="47.08757" lon="5.33679">
        <ele>193</ele>
        <time>2009-08-30T15:24:08Z</time>
      </trkpt>
      <trkpt lat="47.08787" lon="5.3361">
        <ele>193</ele>
        <time>2009-08-30T15:24:20Z</time>
      </trkpt>
      <trkpt lat="47.08811" lon="5.33535">
        <ele>193</ele>
        <time>2009-08-30T15:24:33Z</time>
      </trkpt>
      <trkpt lat="47.08821" lon="5.33464">
        <ele>193</ele>
        <time>2009-08-30T15:24:45Z</time>
      </trkpt>
      <trkpt lat="47.08826" lon="5.33364">
        <ele>194</ele>
        <time>2009-08-30T15:25:00Z</time>
      </trkpt>
      <trkpt lat="47.08828" lon="5.33284">
        <ele>193</ele>
        <time>2009-08-30T15:25:12Z</time>
      </trkpt>
      <trkpt lat="47.08835" lon="5.33169">
        <ele>194</ele>
        <time>2009-08-30T15:25:28Z</time>
      </trkpt>
      <trkpt lat="47.08842" lon="5.33041">
        <ele>194</ele>
        <time>2009-08-30T15:25:46Z</time>
      </trkpt>
      <trkpt lat="47.0884" lon="5.33004">
        <ele>194</ele>
        <time>2009-08-30T15:25:52Z</time>
      </trkpt>
      <trkpt lat="47.08849" lon="5.32934">
        <ele>194</ele>
        <time>2009-08-30T15:26:03Z</time>
      </trkpt>
      <trkpt lat="47.08888" lon="5.32852">
        <ele>194</ele>
        <time>2009-08-30T15:26:18Z</time>
      </trkpt>
      <trkpt lat="47.08931" lon="5.32815">
        <ele>194</ele>
        <time>2009-08-30T15:26:30Z</time>
      </trkpt>
      <trkpt lat="47.08955" lon="5.32803">
        <ele>194</ele>
        <time>2009-08-30T15:26:36Z</time>
      </trkpt>
      <trkpt lat="47.09006" lon="5.3277">
        <ele>194</ele>
        <time>2009-08-30T15:26:51Z</time>
      </trkpt>
      <trkpt lat="47.09017" lon="5.32761">
        <ele>194</ele>
        <time>2009-08-30T15:26:54Z</time>
      </trkpt>
      <trkpt lat="47.09074" lon="5.32724">
        <ele>194</ele>
        <time>2009-08-30T15:27:09Z</time>
      </trkpt>
      <trkpt lat="47.09119" lon="5.32685">
        <ele>194</ele>
        <time>2009-08-30T15:27:22Z</time>
      </trkpt>
      <trkpt lat="47.0914" lon="5.32652">
        <ele>194</ele>
        <time>2009-08-30T15:27:29Z</time>
      </trkpt>
      <trkpt lat="47.09153" lon="5.32636">
        <ele>194</ele>
        <time>2009-08-30T15:27:33Z</time>
      </trkpt>
      <trkpt lat="47.0919" lon="5.32595">
        <ele>194</ele>
        <time>2009-08-30T15:27:45Z</time>
      </trkpt>
      <trkpt lat="47.09232" lon="5.32557">
        <ele>194</ele>
        <time>2009-08-30T15:27:56Z</time>
      </trkpt>
      <trkpt lat="47.0929" lon="5.32523">
        <ele>195</ele>
        <time>2009-08-30T15:28:09Z</time>
      </trkpt>
      <trkpt lat="47.0935" lon="5.32519">
        <ele>194</ele>
        <time>2009-08-30T15:28:22Z</time>
      </trkpt>
      <trkpt lat="47.09416" lon="5.32523">
        <ele>194</ele>
        <time>2009-08-30T15:28:35Z</time>
      </trkpt>
      <trkpt lat="47.09469" lon="5.32526">
        <ele>194</ele>
        <time>2009-08-30T15:28:46Z</time>
      </trkpt>
      <trkpt lat="47.09552" lon="5.32538">
        <ele>195</ele>
        <time>2009-08-30T15:29:03Z</time>
      </trkpt>
      <trkpt lat="47.09625" lon="5.32551">
        <ele>194</ele>
        <time>2009-08-30T15:29:17Z</time>
      </trkpt>
      <trkpt lat="47.09645" lon="5.3255">
        <ele>195</ele>
        <time>2009-08-30T15:29:21Z</time>
      </trkpt>
      <trkpt lat="47.09666" lon="5.32533">
        <ele>195</ele>
        <time>2009-08-30T15:29:26Z</time>
      </trkpt>
      <trkpt lat="47.09679" lon="5.32511">
        <ele>194</ele>
        <time>2009-08-30T15:29:30Z</time>
      </trkpt>
      <trkpt lat="47.09687" lon="5.32462">
        <ele>194</ele>
        <time>2009-08-30T15:29:38Z</time>
      </trkpt>
      <trkpt lat="47.09679" lon="5.32417">
        <ele>195</ele>
        <time>2009-08-30T15:29:45Z</time>
      </trkpt>
      <trkpt lat="47.09677" lon="5.32395">
        <ele>195</ele>
        <time>2009-08-30T15:29:48Z</time>
      </trkpt>
      <trkpt lat="47.09681" lon="5.32351">
        <ele>195</ele>
        <time>2009-08-30T15:29:54Z</time>
      </trkpt>
      <trkpt lat="47.09696" lon="5.32291">
        <ele>195</ele>
        <time>2009-08-30T15:30:03Z</time>
      </trkpt>
      <trkpt lat="47.09732" lon="5.32171">
        <ele>195</ele>
        <time>2009-08-30T15:30:22Z</time>
      </trkpt>
      <trkpt lat="47.09765" lon="5.32106">
        <ele>195</ele>
        <time>2009-08-30T15:30:36Z</time>
      </trkpt>
      <trkpt lat="47.09793" lon="5.3206">
        <ele>196</ele>
        <time>2009-08-30T15:30:47Z</time>
      </trkpt>
      <trkpt lat="47.09844" lon="5.32014">
        <ele>197</ele>
        <time>2009-08-30T15:31:01Z</time>
      </trkpt>
      <trkpt lat="47.09908" lon="5.32002">
        <ele>196</ele>
        <time>2009-08-30T15:31:15Z</time>
      </trkpt>
      <trkpt lat="47.09935" lon="5.31997">
        <ele>196</ele>
        <time>2009-08-30T15:31:21Z</time>
      </trkpt>
      <trkpt lat="47.09944" lon="5.31993">
        <ele>196</ele>
        <time>2009-08-30T15:31:23Z</time>
      </trkpt>
      <trkpt lat="47.0996" lon="5.31981">
        <ele>195</ele>
        <time>2009-08-30T15:31:27Z</time>
      </trkpt>
      <trkpt lat="47.09999" lon="5.31909">
        <ele>195</ele>
        <time>2009-08-30T15:31:42Z</time>
      </trkpt>
      <trkpt lat="47.10034" lon="5.31853">
        <ele>193</ele>
        <time>2009-08-30T15:31:55Z</time>
      </trkpt>
      <trkpt lat="47.10053" lon="5.31819">
        <ele>192</ele>
        <time>2009-08-30T15:32:01Z</time>
      </trkpt>
      <trkpt lat="47.10085" lon="5.3176">
        <ele>192</ele>
        <time>2009-08-30T15:32:14Z</time>
      </trkpt>
      <trkpt lat="47.10087" lon="5.31756">
        <ele>192</ele>
        <time>2009-08-30T15:32:15Z</time>
      </trkpt>
      <trkpt lat="47.10103" lon="5.31737">
        <ele>193</ele>
        <time>2009-08-30T15:32:20Z</time>
      </trkpt>
      <trkpt lat="47.10129" lon="5.31697">
        <ele>192</ele>
        <time>2009-08-30T15:32:28Z</time>
      </trkpt>
      <trkpt lat="47.10163" lon="5.31671">
        <ele>192</ele>
        <time>2009-08-30T15:32:36Z</time>
      </trkpt>
      <trkpt lat="47.10221" lon="5.31667">
        <ele>192</ele>
        <time>2009-08-30T15:32:50Z</time>
      </trkpt>
      <trkpt lat="47.10294" lon="5.31664">
        <ele>192</ele>
        <time>2009-08-30T15:33:06Z</time>
      </trkpt>
      <trkpt lat="47.10312" lon="5.31658">
        <ele>192</ele>
        <time>2009-08-30T15:33:10Z</time>
      </trkpt>
      <trkpt lat="47.10396" lon="5.31635">
        <ele>192</ele>
        <time>2009-08-30T15:33:29Z</time>
      </trkpt>
      <trkpt lat="47.10458" lon="5.31615">
        <ele>192</ele>
        <time>2009-08-30T15:33:45Z</time>
      </trkpt>
      <trkpt lat="47.1048" lon="5.31605">
        <ele>191</ele>
        <time>2009-08-30T15:33:51Z</time>
      </trkpt>
      <trkpt lat="47.105" lon="5.31602">
        <ele>191</ele>
        <time>2009-08-30T15:33:55Z</time>
      </trkpt>
      <trkpt lat="47.10508" lon="5.31601">
        <ele>191</ele>
        <time>2009-08-30T15:33:57Z</time>
      </trkpt>
      <trkpt lat="47.10524" lon="5.31598">
        <ele>191</ele>
        <time>2009-08-30T15:34:00Z</time>
      </trkpt>
      <trkpt lat="47.10591" lon="5.31581">
        <ele>190</ele>
        <time>2009-08-30T15:34:14Z</time>
      </trkpt>
      <trkpt lat="47.10655" lon="5.31553">
        <ele>190</ele>
        <time>2009-08-30T15:34:29Z</time>
      </trkpt>
      <trkpt lat="47.10676" lon="5.3154">
        <ele>190</ele>
        <time>2009-08-30T15:34:34Z</time>
      </trkpt>
      <trkpt lat="47.1069" lon="5.31527">
        <ele>190</ele>
        <time>2009-08-30T15:34:38Z</time>
      </trkpt>
      <trkpt lat="47.10718" lon="5.315">
        <ele>190</ele>
        <time>2009-08-30T15:34:46Z</time>
      </trkpt>
      <trkpt lat="47.1076" lon="5.31425">
        <ele>190</ele>
        <time>2009-08-30T15:35:02Z</time>
      </trkpt>
      <trkpt lat="47.1078" lon="5.31363">
        <ele>190</ele>
        <time>2009-08-30T15:35:15Z</time>
      </trkpt>
      <trkpt lat="47.1079" lon="5.31344">
        <ele>191</ele>
        <time>2009-08-30T15:35:21Z</time>
      </trkpt>
      <trkpt lat="47.10763" lon="5.31313">
        <ele>190</ele>
        <time>2009-08-30T15:35:34Z</time>
      </trkpt>
      <trkpt lat="47.10755" lon="5.31296">
        <ele>190</ele>
        <time>2009-08-30T15:35:38Z</time>
      </trkpt>
      <trkpt lat="47.10768" lon="5.31238">
        <ele>189</ele>
        <time>2009-08-30T15:35:50Z</time>
      </trkpt>
      <trkpt lat="47.1077" lon="5.31205">
        <ele>189</ele>
        <time>2009-08-30T15:35:56Z</time>
      </trkpt>
      <trkpt lat="47.10768" lon="5.31192">
        <ele>188</ele>
        <time>2009-08-30T15:35:58Z</time>
      </trkpt>
      <trkpt lat="47.10759" lon="5.31143">
        <ele>188</ele>
        <time>2009-08-30T15:36:05Z</time>
      </trkpt>
      <trkpt lat="47.10756" lon="5.31131">
        <ele>188</ele>
        <time>2009-08-30T15:36:07Z</time>
      </trkpt>
      <trkpt lat="47.10751" lon="5.31107">
        <ele>188</ele>
        <time>2009-08-30T15:36:11Z</time>
      </trkpt>
      <trkpt lat="47.10749" lon="5.31087">
        <ele>188</ele>
        <time>2009-08-30T15:36:14Z</time>
      </trkpt>
      <trkpt lat="47.10727" lon="5.3097">
        <ele>188</ele>
        <time>2009-08-30T15:36:30Z</time>
      </trkpt>
      <trkpt lat="47.10708" lon="5.30831">
        <ele>188</ele>
        <time>2009-08-30T15:36:49Z</time>
      </trkpt>
      <trkpt lat="47.10701" lon="5.30804">
        <ele>188</ele>
        <time>2009-08-30T15:36:53Z</time>
      </trkpt>
      <trkpt lat="47.10678" lon="5.30664">
        <ele>187</ele>
        <time>2009-08-30T15:37:13Z</time>
      </trkpt>
      <trkpt lat="47.1064" lon="5.30547">
        <ele>188</ele>
        <time>2009-08-30T15:37:31Z</time>
      </trkpt>
      <trkpt lat="47.10606" lon="5.30465">
        <ele>188</ele>
        <time>2009-08-30T15:37:41Z</time>
      </trkpt>
      <trkpt lat="47.10568" lon="5.30384">
        <ele>187</ele>
        <time>2009-08-30T15:37:54Z</time>
      </trkpt>
      <trkpt lat="47.10561" lon="5.30368">
        <ele>187</ele>
        <time>2009-08-30T15:37:57Z</time>
      </trkpt>
      <trkpt lat="47.10542" lon="5.30337">
        <ele>187</ele>
        <time>2009-08-30T15:38:03Z</time>
      </trkpt>
      <trkpt lat="47.10506" lon="5.30289">
        <ele>187</ele>
        <time>2009-08-30T15:38:13Z</time>
      </trkpt>
      <trkpt lat="47.10493" lon="5.30278">
        <ele>187</ele>
        <time>2009-08-30T15:38:16Z</time>
      </trkpt>
      <trkpt lat="47.10486" lon="5.30271">
        <ele>187</ele>
        <time>2009-08-30T15:38:18Z</time>
      </trkpt>
      <trkpt lat="47.10474" lon="5.30262">
        <ele>187</ele>
        <time>2009-08-30T15:38:21Z</time>
      </trkpt>
      <trkpt lat="47.10422" lon="5.30217">
        <ele>187</ele>
        <time>2009-08-30T15:38:33Z</time>
      </trkpt>
      <trkpt lat="47.10378" lon="5.30173">
        <ele>187</ele>
        <time>2009-08-30T15:38:44Z</time>
      </trkpt>
      <trkpt lat="47.10357" lon="5.30149">
        <ele>187</ele>
        <time>2009-08-30T15:38:50Z</time>
      </trkpt>
      <trkpt lat="47.10306" lon="5.30087">
        <ele>187</ele>
        <time>2009-08-30T15:39:05Z</time>
      </trkpt>
      <trkpt lat="47.10238" lon="5.29985">
        <ele>187</ele>
        <time>2009-08-30T15:39:24Z</time>
      </trkpt>
      <trkpt lat="47.10235" lon="5.2998">
        <ele>187</ele>
        <time>2009-08-30T15:39:25Z</time>
      </trkpt>
      <trkpt lat="47.10191" lon="5.29884">
        <ele>187</ele>
        <time>2009-08-30T15:39:41Z</time>
      </trkpt>
      <trkpt lat="47.10178" lon="5.29844">
        <ele>187</ele>
        <time>2009-08-30T15:39:47Z</time>
      </trkpt>
      <trkpt lat="47.10149" lon="5.2972">
        <ele>187</ele>
        <time>2009-08-30T15:40:05Z</time>
      </trkpt>
      <trkpt lat="47.10149" lon="5.29586">
        <ele>187</ele>
        <time>2009-08-30T15:40:23Z</time>
      </trkpt>
      <trkpt lat="47.10149" lon="5.29564">
        <ele>187</ele>
        <time>2009-08-30T15:40:26Z</time>
      </trkpt>
      <trkpt lat="47.10149" lon="5.2953">
        <ele>187</ele>
        <time>2009-08-30T15:40:31Z</time>
      </trkpt>
      <trkpt lat="47.10147" lon="5.29518">
        <ele>187</ele>
        <time>2009-08-30T15:40:33Z</time>
      </trkpt>
      <trkpt lat="47.10149" lon="5.29396">
        <ele>188</ele>
        <time>2009-08-30T15:40:51Z</time>
      </trkpt>
      <trkpt lat="47.10159" lon="5.29258">
        <ele>187</ele>
        <time>2009-08-30T15:41:10Z</time>
      </trkpt>
      <trkpt lat="47.10161" lon="5.29231">
        <ele>187</ele>
        <time>2009-08-30T15:41:14Z</time>
      </trkpt>
      <trkpt lat="47.10171" lon="5.29114">
        <ele>187</ele>
        <time>2009-08-30T15:41:31Z</time>
      </trkpt>
      <trkpt lat="47.10187" lon="5.28987">
        <ele>188</ele>
        <time>2009-08-30T15:41:48Z</time>
      </trkpt>
      <trkpt lat="47.10203" lon="5.28863">
        <ele>187</ele>
        <time>2009-08-30T15:42:05Z</time>
      </trkpt>
      <trkpt lat="47.10215" lon="5.28768">
        <ele>187</ele>
        <time>2009-08-30T15:42:20Z</time>
      </trkpt>
      <trkpt lat="47.10226" lon="5.28684">
        <ele>188</ele>
        <time>2009-08-30T15:42:34Z</time>
      </trkpt>
      <trkpt lat="47.10228" lon="5.28592">
        <ele>187</ele>
        <time>2009-08-30T15:42:48Z</time>
      </trkpt>
      <trkpt lat="47.10222" lon="5.28476">
        <ele>187</ele>
        <time>2009-08-30T15:43:05Z</time>
      </trkpt>
      <trkpt lat="47.1021" lon="5.28356">
        <ele>187</ele>
        <time>2009-08-30T15:43:22Z</time>
      </trkpt>
      <trkpt lat="47.10188" lon="5.28206">
        <ele>187</ele>
        <time>2009-08-30T15:43:43Z</time>
      </trkpt>
      <trkpt lat="47.10168" lon="5.28059">
        <ele>186</ele>
        <time>2009-08-30T15:44:03Z</time>
      </trkpt>
      <trkpt lat="47.10143" lon="5.27889">
        <ele>186</ele>
        <time>2009-08-30T15:44:26Z</time>
      </trkpt>
      <trkpt lat="47.10132" lon="5.2781">
        <ele>187</ele>
        <time>2009-08-30T15:44:37Z</time>
      </trkpt>
      <trkpt lat="47.1013" lon="5.27798">
        <ele>187</ele>
        <time>2009-08-30T15:44:39Z</time>
      </trkpt>
      <trkpt lat="47.10103" lon="5.27703">
        <ele>186</ele>
        <time>2009-08-30T15:44:56Z</time>
      </trkpt>
      <trkpt lat="47.10093" lon="5.2765">
        <ele>186</ele>
        <time>2009-08-30T15:45:05Z</time>
      </trkpt>
      <trkpt lat="47.10085" lon="5.27599">
        <ele>186</ele>
        <time>2009-08-30T15:45:13Z</time>
      </trkpt>
      <trkpt lat="47.10081" lon="5.2756">
        <ele>186</ele>
        <time>2009-08-30T15:45:19Z</time>
      </trkpt>
      <trkpt lat="47.10074" lon="5.2747">
        <ele>186</ele>
        <time>2009-08-30T15:45:33Z</time>
      </trkpt>
      <trkpt lat="47.10065" lon="5.27384">
        <ele>186</ele>
        <time>2009-08-30T15:45:47Z</time>
      </trkpt>
      <trkpt lat="47.10053" lon="5.27313">
        <ele>186</ele>
        <time>2009-08-30T15:45:59Z</time>
      </trkpt>
      <trkpt lat="47.10048" lon="5.27294">
        <ele>186</ele>
        <time>2009-08-30T15:46:02Z</time>
      </trkpt>
      <trkpt lat="47.10029" lon="5.27195">
        <ele>186</ele>
        <time>2009-08-30T15:46:17Z</time>
      </trkpt>
      <trkpt lat="47.10007" lon="5.27081">
        <ele>186</ele>
        <time>2009-08-30T15:46:34Z</time>
      </trkpt>
      <trkpt lat="47.09973" lon="5.26956">
        <ele>186</ele>
        <time>2009-08-30T15:46:53Z</time>
      </trkpt>
      <trkpt lat="47.09952" lon="5.26841">
        <ele>187</ele>
        <time>2009-08-30T15:47:10Z</time>
      </trkpt>
      <trkpt lat="47.0994" lon="5.26708">
        <ele>187</ele>
        <time>2009-08-30T15:47:29Z</time>
      </trkpt>
      <trkpt lat="47.09948" lon="5.26596">
        <ele>187</ele>
        <time>2009-08-30T15:47:45Z</time>
      </trkpt>
      <trkpt lat="47.09962" lon="5.26526">
        <ele>187</ele>
        <time>2009-08-30T15:47:57Z</time>
      </trkpt>
      <trkpt lat="47.09971" lon="5.26455">
        <ele>187</ele>
        <time>2009-08-30T15:48:11Z</time>
      </trkpt>
      <trkpt lat="47.09974" lon="5.26407">
        <ele>188</ele>
        <time>2009-08-30T15:48:23Z</time>
      </trkpt>
      <trkpt lat="47.09982" lon="5.26354">
        <ele>186</ele>
        <time>2009-08-30T15:48:33Z</time>
      </trkpt>
      <trkpt lat="47.09991" lon="5.26292">
        <ele>186</ele>
        <time>2009-08-30T15:48:45Z</time>
      </trkpt>
      <trkpt lat="47.09989" lon="5.26242">
        <ele>186</ele>
        <time>2009-08-30T15:48:53Z</time>
      </trkpt>
      <trkpt lat="47.0999" lon="5.26201">
        <ele>187</ele>
        <time>2009-08-30T15:49:03Z</time>
      </trkpt>
      <trkpt lat="47.0999" lon="5.26203">
        <ele>187</ele>
        <time>2009-08-30T15:50:22Z</time>
      </trkpt>
      <trkpt lat="47.09991" lon="5.26257">
        <ele>185</ele>
        <time>2009-08-30T15:50:33Z</time>
      </trkpt>
      <trkpt lat="47.09992" lon="5.26308">
        <ele>185</ele>
        <time>2009-08-30T15:50:44Z</time>
      </trkpt>
      <trkpt lat="47.09982" lon="5.26357">
        <ele>185</ele>
        <time>2009-08-30T15:50:54Z</time>
      </trkpt>
      <trkpt lat="47.09972" lon="5.26412">
        <ele>187</ele>
        <time>2009-08-30T15:51:05Z</time>
      </trkpt>
      <trkpt lat="47.09969" lon="5.26465">
        <ele>187</ele>
        <time>2009-08-30T15:51:17Z</time>
      </trkpt>
      <trkpt lat="47.09963" lon="5.26519">
        <ele>186</ele>
        <time>2009-08-30T15:51:31Z</time>
      </trkpt>
      <trkpt lat="47.09964" lon="5.26527">
        <ele>186</ele>
        <time>2009-08-30T15:51:48Z</time>
      </trkpt>
      <trkpt lat="47.09962" lon="5.2653">
        <ele>186</ele>
        <time>2009-08-30T15:55:01Z</time>
      </trkpt>
      <trkpt lat="47.09969" lon="5.26477">
        <ele>186</ele>
        <time>2009-08-30T15:55:13Z</time>
      </trkpt>
      <trkpt lat="47.09971" lon="5.2646">
        <ele>186</ele>
        <time>2009-08-30T15:55:16Z</time>
      </trkpt>
      <trkpt lat="47.09973" lon="5.26376">
        <ele>188</ele>
        <time>2009-08-30T15:55:29Z</time>
      </trkpt>
      <trkpt lat="47.09975" lon="5.26324">
        <ele>190</ele>
        <time>2009-08-30T15:55:41Z</time>
      </trkpt>
      <trkpt lat="47.09975" lon="5.26307">
        <ele>190</ele>
        <time>2009-08-30T15:55:49Z</time>
      </trkpt>
      <trkpt lat="47.10007" lon="5.26305">
        <ele>191</ele>
        <time>2009-08-30T15:56:00Z</time>
      </trkpt>
      <trkpt lat="47.10069" lon="5.26311">
        <ele>192</ele>
        <time>2009-08-30T15:56:17Z</time>
      </trkpt>
      <trkpt lat="47.10126" lon="5.26317">
        <ele>191</ele>
        <time>2009-08-30T15:56:30Z</time>
      </trkpt>
      <trkpt lat="47.10135" lon="5.26317">
        <ele>190</ele>
        <time>2009-08-30T15:56:32Z</time>
      </trkpt>
      <trkpt lat="47.10159" lon="5.26316">
        <ele>190</ele>
        <time>2009-08-30T15:56:37Z</time>
      </trkpt>
      <trkpt lat="47.1021" lon="5.26314">
        <ele>189</ele>
        <time>2009-08-30T15:56:50Z</time>
      </trkpt>
      <trkpt lat="47.10246" lon="5.26312">
        <ele>188</ele>
        <time>2009-08-30T15:56:59Z</time>
      </trkpt>
      <trkpt lat="47.10255" lon="5.2631">
        <ele>187</ele>
        <time>2009-08-30T15:57:01Z</time>
      </trkpt>
      <trkpt lat="47.10323" lon="5.26295">
        <ele>188</ele>
        <time>2009-08-30T15:57:17Z</time>
      </trkpt>
      <trkpt lat="47.10353" lon="5.26289">
        <ele>187</ele>
        <time>2009-08-30T15:57:25Z</time>
      </trkpt>
      <trkpt lat="47.10356" lon="5.26252">
        <ele>187</ele>
        <time>2009-08-30T15:57:32Z</time>
      </trkpt>
      <trkpt lat="47.10344" lon="5.26175">
        <ele>187</ele>
        <time>2009-08-30T15:57:46Z</time>
      </trkpt>
      <trkpt lat="47.1037" lon="5.26155">
        <ele>187</ele>
        <time>2009-08-30T15:57:56Z</time>
      </trkpt>
      <trkpt lat="47.10392" lon="5.26151">
        <ele>186</ele>
        <time>2009-08-30T15:58:03Z</time>
      </trkpt>
      <trkpt lat="47.1039" lon="5.26148">
        <ele>186</ele>
        <time>2009-08-30T15:58:08Z</time>
      </trkpt>
      <trkpt lat="47.10353" lon="5.26162">
        <ele>187</ele>
        <time>2009-08-30T15:58:20Z</time>
      </trkpt>
      <trkpt lat="47.10313" lon="5.26171">
        <ele>187</ele>
        <time>2009-08-30T15:58:31Z</time>
      </trkpt>
      <trkpt lat="47.10287" lon="5.26148">
        <ele>188</ele>
        <time>2009-08-30T15:58:41Z</time>
      </trkpt>
      <trkpt lat="47.10252" lon="5.26108">
        <ele>188</ele>
        <time>2009-08-30T15:58:54Z</time>
      </trkpt>
      <trkpt lat="47.10223" lon="5.26071">
        <ele>188</ele>
        <time>2009-08-30T15:59:05Z</time>
      </trkpt>
      <trkpt lat="47.10199" lon="5.26064">
        <ele>188</ele>
        <time>2009-08-30T15:59:15Z</time>
      </trkpt>
      <trkpt lat="47.10186" lon="5.26065">
        <ele>188</ele>
        <time>2009-08-30T15:59:19Z</time>
      </trkpt>
      <trkpt lat="47.10177" lon="5.26068">
        <ele>188</ele>
        <time>2009-08-30T15:59:24Z</time>
      </trkpt>
      <trkpt lat="47.10167" lon="5.26054">
        <ele>190</ele>
        <time>2009-08-30T15:59:31Z</time>
      </trkpt>
      <trkpt lat="47.102" lon="5.26009">
        <ele>191</ele>
        <time>2009-08-30T15:59:43Z</time>
      </trkpt>
      <trkpt lat="47.10232" lon="5.25996">
        <ele>191</ele>
        <time>2009-08-30T15:59:55Z</time>
      </trkpt>
      <trkpt lat="47.10279" lon="5.26003">
        <ele>189</ele>
        <time>2009-08-30T16:00:07Z</time>
      </trkpt>
      <trkpt lat="47.10292" lon="5.26004">
        <ele>189</ele>
        <time>2009-08-30T16:00:10Z</time>
      </trkpt>
      <trkpt lat="47.10353" lon="5.26025">
        <ele>188</ele>
        <time>2009-08-30T16:00:26Z</time>
      </trkpt>
      <trkpt lat="47.10395" lon="5.26067">
        <ele>188</ele>
        <time>2009-08-30T16:00:40Z</time>
      </trkpt>
      <trkpt lat="47.10425" lon="5.26112">
        <ele>188</ele>
        <time>2009-08-30T16:00:54Z</time>
      </trkpt>
      <trkpt lat="47.10436" lon="5.26151">
        <ele>188</ele>
        <time>2009-08-30T16:01:08Z</time>
      </trkpt>
      <trkpt lat="47.10446" lon="5.26175">
        <ele>188</ele>
        <time>2009-08-30T16:01:18Z</time>
      </trkpt>
      <trkpt lat="47.10464" lon="5.26211">
        <ele>188</ele>
        <time>2009-08-30T16:01:31Z</time>
      </trkpt>
      <trkpt lat="47.10472" lon="5.26231">
        <ele>188</ele>
        <time>2009-08-30T16:01:40Z</time>
      </trkpt>
      <trkpt lat="47.10481" lon="5.26251">
        <ele>188</ele>
        <time>2009-08-30T16:01:52Z</time>
      </trkpt>
      <trkpt lat="47.10489" lon="5.26271">
        <ele>188</ele>
        <time>2009-08-30T16:02:02Z</time>
      </trkpt>
      <trkpt lat="47.10497" lon="5.26288">
        <ele>188</ele>
        <time>2009-08-30T16:02:09Z</time>
      </trkpt>
      <trkpt lat="47.1051" lon="5.26316">
        <ele>188</ele>
        <time>2009-08-30T16:02:22Z</time>
      </trkpt>
      <trkpt lat="47.10511" lon="5.26318">
        <ele>188</ele>
        <time>2009-08-30T16:02:23Z</time>
      </trkpt>
      <trkpt lat="47.10528" lon="5.26334">
        <ele>188</ele>
        <time>2009-08-30T16:02:35Z</time>
      </trkpt>
      <trkpt lat="47.10516" lon="5.26303">
        <ele>189</ele>
        <time>2009-08-30T16:02:48Z</time>
      </trkpt>
      <trkpt lat="47.10496" lon="5.26256">
        <ele>189</ele>
        <time>2009-08-30T16:03:02Z</time>
      </trkpt>
      <trkpt lat="47.10474" lon="5.26202">
        <ele>189</ele>
        <time>2009-08-30T16:03:16Z</time>
      </trkpt>
      <trkpt lat="47.10455" lon="5.2616">
        <ele>189</ele>
        <time>2009-08-30T16:03:28Z</time>
      </trkpt>
      <trkpt lat="47.10437" lon="5.26126">
        <ele>189</ele>
        <time>2009-08-30T16:03:40Z</time>
      </trkpt>
      <trkpt lat="47.10416" lon="5.26083">
        <ele>189</ele>
        <time>2009-08-30T16:03:54Z</time>
      </trkpt>
      <trkpt lat="47.1038" lon="5.26044">
        <ele>189</ele>
        <time>2009-08-30T16:04:06Z</time>
      </trkpt>
      <trkpt lat="47.10341" lon="5.26017">
        <ele>189</ele>
        <time>2009-08-30T16:04:18Z</time>
      </trkpt>
      <trkpt lat="47.10297" lon="5.26009">
        <ele>190</ele>
        <time>2009-08-30T16:04:32Z</time>
      </trkpt>
      <trkpt lat="47.1025" lon="5.25999">
        <ele>192</ele>
        <time>2009-08-30T16:04:46Z</time>
      </trkpt>
      <trkpt lat="47.10238" lon="5.25997">
        <ele>193</ele>
        <time>2009-08-30T16:04:55Z</time>
      </trkpt>
      <trkpt lat="47.10231" lon="5.25996">
        <ele>193</ele>
        <time>2009-08-30T16:04:59Z</time>
      </trkpt>
      <trkpt lat="47.10214" lon="5.2601">
        <ele>193</ele>
        <time>2009-08-30T16:05:05Z</time>
      </trkpt>
      <trkpt lat="47.10193" lon="5.26028">
        <ele>192</ele>
        <time>2009-08-30T16:05:10Z</time>
      </trkpt>
      <trkpt lat="47.10187" lon="5.26036">
        <ele>191</ele>
        <time>2009-08-30T16:05:12Z</time>
      </trkpt>
      <trkpt lat="47.10169" lon="5.26063">
        <ele>190</ele>
        <time>2009-08-30T16:05:18Z</time>
      </trkpt>
      <trkpt lat="47.10134" lon="5.26097">
        <ele>190</ele>
        <time>2009-08-30T16:05:28Z</time>
      </trkpt>
      <trkpt lat="47.10121" lon="5.26136">
        <ele>190</ele>
        <time>2009-08-30T16:05:35Z</time>
      </trkpt>
      <trkpt lat="47.10124" lon="5.26235">
        <ele>191</ele>
        <time>2009-08-30T16:05:50Z</time>
      </trkpt>
      <trkpt lat="47.10121" lon="5.26306">
        <ele>193</ele>
        <time>2009-08-30T16:06:03Z</time>
      </trkpt>
      <trkpt lat="47.10093" lon="5.26312">
        <ele>195</ele>
        <time>2009-08-30T16:06:11Z</time>
      </trkpt>
      <trkpt lat="47.10033" lon="5.26305">
        <ele>194</ele>
        <time>2009-08-30T16:06:28Z</time>
      </trkpt>
      <trkpt lat="47.10028" lon="5.26305">
        <ele>195</ele>
        <time>2009-08-30T16:06:29Z</time>
      </trkpt>
      <trkpt lat="47.09997" lon="5.26302">
        <ele>194</ele>
        <time>2009-08-30T16:06:35Z</time>
      </trkpt>
      <trkpt lat="47.09988" lon="5.26303">
        <ele>193</ele>
        <time>2009-08-30T16:06:37Z</time>
      </trkpt>
      <trkpt lat="47.09977" lon="5.26314">
        <ele>192</ele>
        <time>2009-08-30T16:06:41Z</time>
      </trkpt>
      <trkpt lat="47.09974" lon="5.26329">
        <ele>192</ele>
        <time>2009-08-30T16:06:46Z</time>
      </trkpt>
      <trkpt lat="47.09972" lon="5.2634">
        <ele>191</ele>
        <time>2009-08-30T16:06:50Z</time>
      </trkpt>
      <trkpt lat="47.09973" lon="5.26375">
        <ele>191</ele>
        <time>2009-08-30T16:06:57Z</time>
      </trkpt>
      <trkpt lat="47.09973" lon="5.264">
        <ele>190</ele>
        <time>2009-08-30T16:07:01Z</time>
      </trkpt>
      <trkpt lat="47.09973" lon="5.26442">
        <ele>189</ele>
        <time>2009-08-30T16:07:07Z</time>
      </trkpt>
      <trkpt lat="47.09971" lon="5.26465">
        <ele>189</ele>
        <time>2009-08-30T16:07:10Z</time>
      </trkpt>
      <trkpt lat="47.09961" lon="5.26517">
        <ele>188</ele>
        <time>2009-08-30T16:07:19Z</time>
      </trkpt>
      <trkpt lat="47.09951" lon="5.26564">
        <ele>188</ele>
        <time>2009-08-30T16:07:28Z</time>
      </trkpt>
      <trkpt lat="47.09938" lon="5.26648">
        <ele>189</ele>
        <time>2009-08-30T16:07:41Z</time>
      </trkpt>
      <trkpt lat="47.09941" lon="5.26771">
        <ele>188</ele>
        <time>2009-08-30T16:07:59Z</time>
      </trkpt>
      <trkpt lat="47.09949" lon="5.26842">
        <ele>188</ele>
        <time>2009-08-30T16:08:11Z</time>
      </trkpt>
      <trkpt lat="47.09971" lon="5.26952">
        <ele>188</ele>
        <time>2009-08-30T16:08:28Z</time>
      </trkpt>
      <trkpt lat="47.09999" lon="5.27054">
        <ele>189</ele>
        <time>2009-08-30T16:08:44Z</time>
      </trkpt>
      <trkpt lat="47.10023" lon="5.27156">
        <ele>189</ele>
        <time>2009-08-30T16:09:00Z</time>
      </trkpt>
      <trkpt lat="47.10041" lon="5.27268">
        <ele>189</ele>
        <time>2009-08-30T16:09:17Z</time>
      </trkpt>
      <trkpt lat="47.10048" lon="5.27298">
        <ele>189</ele>
        <time>2009-08-30T16:09:22Z</time>
      </trkpt>
      <trkpt lat="47.10064" lon="5.27378">
        <ele>188</ele>
        <time>2009-08-30T16:09:37Z</time>
      </trkpt>
      <trkpt lat="47.10067" lon="5.27434">
        <ele>188</ele>
        <time>2009-08-30T16:09:47Z</time>
      </trkpt>
      <trkpt lat="47.10077" lon="5.27559">
        <ele>188</ele>
        <time>2009-08-30T16:10:05Z</time>
      </trkpt>
      <trkpt lat="47.10094" lon="5.27669">
        <ele>188</ele>
        <time>2009-08-30T16:10:22Z</time>
      </trkpt>
      <trkpt lat="47.10127" lon="5.27797">
        <ele>188</ele>
        <time>2009-08-30T16:10:42Z</time>
      </trkpt>
      <trkpt lat="47.10146" lon="5.27931">
        <ele>188</ele>
        <time>2009-08-30T16:11:02Z</time>
      </trkpt>
      <trkpt lat="47.10167" lon="5.28068">
        <ele>188</ele>
        <time>2009-08-30T16:11:23Z</time>
      </trkpt>
      <trkpt lat="47.10174" lon="5.28112">
        <ele>189</ele>
        <time>2009-08-30T16:11:30Z</time>
      </trkpt>
      <trkpt lat="47.10183" lon="5.28181">
        <ele>188</ele>
        <time>2009-08-30T16:11:44Z</time>
      </trkpt>
      <trkpt lat="47.10194" lon="5.28262">
        <ele>188</ele>
        <time>2009-08-30T16:11:58Z</time>
      </trkpt>
      <trkpt lat="47.10209" lon="5.28379">
        <ele>188</ele>
        <time>2009-08-30T16:12:16Z</time>
      </trkpt>
      <trkpt lat="47.10211" lon="5.28392">
        <ele>188</ele>
        <time>2009-08-30T16:12:18Z</time>
      </trkpt>
      <trkpt lat="47.10225" lon="5.28557">
        <ele>188</ele>
        <time>2009-08-30T16:12:43Z</time>
      </trkpt>
      <trkpt lat="47.10227" lon="5.28667">
        <ele>188</ele>
        <time>2009-08-30T16:12:59Z</time>
      </trkpt>
      <trkpt lat="47.10214" lon="5.28766">
        <ele>188</ele>
        <time>2009-08-30T16:13:15Z</time>
      </trkpt>
      <trkpt lat="47.10211" lon="5.28785">
        <ele>188</ele>
        <time>2009-08-30T16:13:18Z</time>
      </trkpt>
      <trkpt lat="47.10203" lon="5.28846">
        <ele>188</ele>
        <time>2009-08-30T16:13:27Z</time>
      </trkpt>
      <trkpt lat="47.102" lon="5.28865">
        <ele>188</ele>
        <time>2009-08-30T16:13:30Z</time>
      </trkpt>
      <trkpt lat="47.10185" lon="5.28977">
        <ele>188</ele>
        <time>2009-08-30T16:13:47Z</time>
      </trkpt>
      <trkpt lat="47.10179" lon="5.29025">
        <ele>187</ele>
        <time>2009-08-30T16:13:55Z</time>
      </trkpt>
      <trkpt lat="47.10166" lon="5.29133">
        <ele>187</ele>
        <time>2009-08-30T16:14:12Z</time>
      </trkpt>
      <trkpt lat="47.10156" lon="5.29257">
        <ele>188</ele>
        <time>2009-08-30T16:14:30Z</time>
      </trkpt>
      <trkpt lat="47.10152" lon="5.29308">
        <ele>188</ele>
        <time>2009-08-30T16:14:38Z</time>
      </trkpt>
      <trkpt lat="47.10152" lon="5.29355">
        <ele>187</ele>
        <time>2009-08-30T16:14:46Z</time>
      </trkpt>
      <trkpt lat="47.10144" lon="5.29467">
        <ele>187</ele>
        <time>2009-08-30T16:15:03Z</time>
      </trkpt>
      <trkpt lat="47.1015" lon="5.2955">
        <ele>187</ele>
        <time>2009-08-30T16:15:16Z</time>
      </trkpt>
      <trkpt lat="47.10147" lon="5.29585">
        <ele>187</ele>
        <time>2009-08-30T16:15:22Z</time>
      </trkpt>
      <trkpt lat="47.10146" lon="5.29623">
        <ele>187</ele>
        <time>2009-08-30T16:15:28Z</time>
      </trkpt>
      <trkpt lat="47.10147" lon="5.29697">
        <ele>187</ele>
        <time>2009-08-30T16:15:40Z</time>
      </trkpt>
      <trkpt lat="47.10154" lon="5.29759">
        <ele>187</ele>
        <time>2009-08-30T16:15:49Z</time>
      </trkpt>
      <trkpt lat="47.10174" lon="5.29836">
        <ele>187</ele>
        <time>2009-08-30T16:16:01Z</time>
      </trkpt>
      <trkpt lat="47.10214" lon="5.2994">
        <ele>187</ele>
        <time>2009-08-30T16:16:18Z</time>
      </trkpt>
      <trkpt lat="47.10257" lon="5.3002">
        <ele>187</ele>
        <time>2009-08-30T16:16:33Z</time>
      </trkpt>
      <trkpt lat="47.10284" lon="5.30059">
        <ele>187</ele>
        <time>2009-08-30T16:16:41Z</time>
      </trkpt>
      <trkpt lat="47.10344" lon="5.30136">
        <ele>187</ele>
        <time>2009-08-30T16:16:58Z</time>
      </trkpt>
      <trkpt lat="47.10419" lon="5.30211">
        <ele>187</ele>
        <time>2009-08-30T16:17:17Z</time>
      </trkpt>
      <trkpt lat="47.10446" lon="5.3024">
        <ele>187</ele>
        <time>2009-08-30T16:17:25Z</time>
      </trkpt>
      <trkpt lat="47.10507" lon="5.3029">
        <ele>187</ele>
        <time>2009-08-30T16:17:40Z</time>
      </trkpt>
      <trkpt lat="47.10536" lon="5.30329">
        <ele>187</ele>
        <time>2009-08-30T16:17:48Z</time>
      </trkpt>
      <trkpt lat="47.10554" lon="5.3036">
        <ele>187</ele>
        <time>2009-08-30T16:17:54Z</time>
      </trkpt>
      <trkpt lat="47.10566" lon="5.30382">
        <ele>187</ele>
        <time>2009-08-30T16:17:59Z</time>
      </trkpt>
      <trkpt lat="47.10612" lon="5.30483">
        <ele>187</ele>
        <time>2009-08-30T16:18:18Z</time>
      </trkpt>
      <trkpt lat="47.10622" lon="5.30507">
        <ele>187</ele>
        <time>2009-08-30T16:18:23Z</time>
      </trkpt>
      <trkpt lat="47.10634" lon="5.30533">
        <ele>187</ele>
        <time>2009-08-30T16:18:28Z</time>
      </trkpt>
      <trkpt lat="47.1067" lon="5.30642">
        <ele>187</ele>
        <time>2009-08-30T16:18:46Z</time>
      </trkpt>
      <trkpt lat="47.10675" lon="5.30662">
        <ele>187</ele>
        <time>2009-08-30T16:18:49Z</time>
      </trkpt>
      <trkpt lat="47.10677" lon="5.30674">
        <ele>187</ele>
        <time>2009-08-30T16:18:51Z</time>
      </trkpt>
      <trkpt lat="47.1069" lon="5.30756">
        <ele>186</ele>
        <time>2009-08-30T16:19:04Z</time>
      </trkpt>
      <trkpt lat="47.10704" lon="5.30825">
        <ele>187</ele>
        <time>2009-08-30T16:19:15Z</time>
      </trkpt>
      <trkpt lat="47.10717" lon="5.30898">
        <ele>187</ele>
        <time>2009-08-30T16:19:28Z</time>
      </trkpt>
      <trkpt lat="47.10727" lon="5.30989">
        <ele>186</ele>
        <time>2009-08-30T16:19:43Z</time>
      </trkpt>
      <trkpt lat="47.10742" lon="5.31075">
        <ele>187</ele>
        <time>2009-08-30T16:19:58Z</time>
      </trkpt>
      <trkpt lat="47.1075" lon="5.31121">
        <ele>186</ele>
        <time>2009-08-30T16:20:06Z</time>
      </trkpt>
      <trkpt lat="47.10763" lon="5.31211">
        <ele>187</ele>
        <time>2009-08-30T16:20:23Z</time>
      </trkpt>
      <trkpt lat="47.10757" lon="5.31267">
        <ele>188</ele>
        <time>2009-08-30T16:20:35Z</time>
      </trkpt>
      <trkpt lat="47.10751" lon="5.31307">
        <ele>188</ele>
        <time>2009-08-30T16:20:47Z</time>
      </trkpt>
      <trkpt lat="47.10752" lon="5.31308">
        <ele>188</ele>
        <time>2009-08-30T16:21:23Z</time>
      </trkpt>
      <trkpt lat="47.10753" lon="5.31308">
        <ele>188</ele>
        <time>2009-08-30T16:24:42Z</time>
      </trkpt>
      <trkpt lat="47.10772" lon="5.31329">
        <ele>189</ele>
        <time>2009-08-30T16:24:53Z</time>
      </trkpt>
      <trkpt lat="47.10785" lon="5.31342">
        <ele>190</ele>
        <time>2009-08-30T16:24:59Z</time>
      </trkpt>
      <trkpt lat="47.10778" lon="5.31366">
        <ele>188</ele>
        <time>2009-08-30T16:25:04Z</time>
      </trkpt>
      <trkpt lat="47.1074" lon="5.31458">
        <ele>188</ele>
        <time>2009-08-30T16:25:18Z</time>
      </trkpt>
      <trkpt lat="47.10734" lon="5.31471">
        <ele>188</ele>
        <time>2009-08-30T16:25:20Z</time>
      </trkpt>
      <trkpt lat="47.10668" lon="5.31542">
        <ele>188</ele>
        <time>2009-08-30T16:25:35Z</time>
      </trkpt>
      <trkpt lat="47.10614" lon="5.3157">
        <ele>188</ele>
        <time>2009-08-30T16:25:46Z</time>
      </trkpt>
      <trkpt lat="47.10572" lon="5.31581">
        <ele>188</ele>
        <time>2009-08-30T16:25:57Z</time>
      </trkpt>
      <trkpt lat="47.10504" lon="5.31597">
        <ele>190</ele>
        <time>2009-08-30T16:26:09Z</time>
      </trkpt>
      <trkpt lat="47.10473" lon="5.31609">
        <ele>190</ele>
        <time>2009-08-30T16:26:19Z</time>
      </trkpt>
      <trkpt lat="47.10438" lon="5.31614">
        <ele>190</ele>
        <time>2009-08-30T16:26:29Z</time>
      </trkpt>
      <trkpt lat="47.10384" lon="5.31636">
        <ele>190</ele>
        <time>2009-08-30T16:26:42Z</time>
      </trkpt>
      <trkpt lat="47.10321" lon="5.31653">
        <ele>189</ele>
        <time>2009-08-30T16:26:56Z</time>
      </trkpt>
      <trkpt lat="47.10256" lon="5.31662">
        <ele>190</ele>
        <time>2009-08-30T16:27:11Z</time>
      </trkpt>
      <trkpt lat="47.10195" lon="5.31659">
        <ele>190</ele>
        <time>2009-08-30T16:27:26Z</time>
      </trkpt>
      <trkpt lat="47.10181" lon="5.31665">
        <ele>190</ele>
        <time>2009-08-30T16:27:29Z</time>
      </trkpt>
      <trkpt lat="47.10141" lon="5.31685">
        <ele>190</ele>
        <time>2009-08-30T16:27:37Z</time>
      </trkpt>
      <trkpt lat="47.10124" lon="5.31704">
        <ele>190</ele>
        <time>2009-08-30T16:27:42Z</time>
      </trkpt>
      <trkpt lat="47.1009" lon="5.31755">
        <ele>190</ele>
        <time>2009-08-30T16:27:54Z</time>
      </trkpt>
      <trkpt lat="47.1008" lon="5.31776">
        <ele>190</ele>
        <time>2009-08-30T16:27:59Z</time>
      </trkpt>
      <trkpt lat="47.10063" lon="5.31801">
        <ele>190</ele>
        <time>2009-08-30T16:28:04Z</time>
      </trkpt>
      <trkpt lat="47.10022" lon="5.3187">
        <ele>191</ele>
        <time>2009-08-30T16:28:20Z</time>
      </trkpt>
      <trkpt lat="47.09993" lon="5.3192">
        <ele>192</ele>
        <time>2009-08-30T16:28:33Z</time>
      </trkpt>
      <trkpt lat="47.09954" lon="5.31984">
        <ele>192</ele>
        <time>2009-08-30T16:28:49Z</time>
      </trkpt>
      <trkpt lat="47.09921" lon="5.31999">
        <ele>193</ele>
        <time>2009-08-30T16:29:00Z</time>
      </trkpt>
      <trkpt lat="47.09863" lon="5.32007">
        <ele>193</ele>
        <time>2009-08-30T16:29:15Z</time>
      </trkpt>
      <trkpt lat="47.09811" lon="5.32032">
        <ele>193</ele>
        <time>2009-08-30T16:29:28Z</time>
      </trkpt>
      <trkpt lat="47.09776" lon="5.3205">
        <ele>193</ele>
        <time>2009-08-30T16:29:39Z</time>
      </trkpt>
      <trkpt lat="47.09755" lon="5.32074">
        <ele>193</ele>
        <time>2009-08-30T16:29:46Z</time>
      </trkpt>
      <trkpt lat="47.0972" lon="5.32141">
        <ele>193</ele>
        <time>2009-08-30T16:29:58Z</time>
      </trkpt>
      <trkpt lat="47.09715" lon="5.32163">
        <ele>193</ele>
        <time>2009-08-30T16:30:01Z</time>
      </trkpt>
      <trkpt lat="47.09696" lon="5.32223">
        <ele>192</ele>
        <time>2009-08-30T16:30:10Z</time>
      </trkpt>
      <trkpt lat="47.09693" lon="5.32244">
        <ele>193</ele>
        <time>2009-08-30T16:30:13Z</time>
      </trkpt>
      <trkpt lat="47.0969" lon="5.32274">
        <ele>193</ele>
        <time>2009-08-30T16:30:17Z</time>
      </trkpt>
      <trkpt lat="47.09675" lon="5.3233">
        <ele>193</ele>
        <time>2009-08-30T16:30:23Z</time>
      </trkpt>
      <trkpt lat="47.09673" lon="5.32367">
        <ele>192</ele>
        <time>2009-08-30T16:30:27Z</time>
      </trkpt>
      <trkpt lat="47.09675" lon="5.32392">
        <ele>193</ele>
        <time>2009-08-30T16:30:30Z</time>
      </trkpt>
      <trkpt lat="47.09682" lon="5.32435">
        <ele>192</ele>
        <time>2009-08-30T16:30:35Z</time>
      </trkpt>
      <trkpt lat="47.09682" lon="5.32465">
        <ele>192</ele>
        <time>2009-08-30T16:30:39Z</time>
      </trkpt>
      <trkpt lat="47.09678" lon="5.3249">
        <ele>192</ele>
        <time>2009-08-30T16:30:43Z</time>
      </trkpt>
      <trkpt lat="47.09665" lon="5.32514">
        <ele>192</ele>
        <time>2009-08-30T16:30:48Z</time>
      </trkpt>
      <trkpt lat="47.09661" lon="5.32526">
        <ele>193</ele>
        <time>2009-08-30T16:30:50Z</time>
      </trkpt>
      <trkpt lat="47.09639" lon="5.32545">
        <ele>192</ele>
        <time>2009-08-30T16:30:56Z</time>
      </trkpt>
      <trkpt lat="47.09575" lon="5.32532">
        <ele>192</ele>
        <time>2009-08-30T16:31:10Z</time>
      </trkpt>
      <trkpt lat="47.0953" lon="5.32523">
        <ele>192</ele>
        <time>2009-08-30T16:31:21Z</time>
      </trkpt>
      <trkpt lat="47.09486" lon="5.32516">
        <ele>192</ele>
        <time>2009-08-30T16:31:32Z</time>
      </trkpt>
      <trkpt lat="47.09443" lon="5.32514">
        <ele>192</ele>
        <time>2009-08-30T16:31:41Z</time>
      </trkpt>
      <trkpt lat="47.094" lon="5.32516">
        <ele>192</ele>
        <time>2009-08-30T16:31:51Z</time>
      </trkpt>
      <trkpt lat="47.09379" lon="5.32516">
        <ele>193</ele>
        <time>2009-08-30T16:31:56Z</time>
      </trkpt>
      <trkpt lat="47.09337" lon="5.32513">
        <ele>192</ele>
        <time>2009-08-30T16:32:05Z</time>
      </trkpt>
      <trkpt lat="47.0932" lon="5.32517">
        <ele>193</ele>
        <time>2009-08-30T16:32:09Z</time>
      </trkpt>
      <trkpt lat="47.0928" lon="5.3254">
        <ele>193</ele>
        <time>2009-08-30T16:32:19Z</time>
      </trkpt>
      <trkpt lat="47.09237" lon="5.3256">
        <ele>193</ele>
        <time>2009-08-30T16:32:27Z</time>
      </trkpt>
      <trkpt lat="47.09201" lon="5.32581">
        <ele>193</ele>
        <time>2009-08-30T16:32:33Z</time>
      </trkpt>
      <trkpt lat="47.09181" lon="5.32597">
        <ele>193</ele>
        <time>2009-08-30T16:32:37Z</time>
      </trkpt>
      <trkpt lat="47.09146" lon="5.32635">
        <ele>193</ele>
        <time>2009-08-30T16:32:47Z</time>
      </trkpt>
      <trkpt lat="47.09139" lon="5.32644">
        <ele>193</ele>
        <time>2009-08-30T16:32:49Z</time>
      </trkpt>
      <trkpt lat="47.09118" lon="5.32664">
        <ele>193</ele>
        <time>2009-08-30T16:32:53Z</time>
      </trkpt>
      <trkpt lat="47.0909" lon="5.32685">
        <ele>193</ele>
        <time>2009-08-30T16:32:59Z</time>
      </trkpt>
      <trkpt lat="47.0905" lon="5.3273">
        <ele>193</ele>
        <time>2009-08-30T16:33:10Z</time>
      </trkpt>
      <trkpt lat="47.09008" lon="5.32761">
        <ele>193</ele>
        <time>2009-08-30T16:33:21Z</time>
      </trkpt>
      <trkpt lat="47.08968" lon="5.32785">
        <ele>194</ele>
        <time>2009-08-30T16:33:32Z</time>
      </trkpt>
      <trkpt lat="47.08924" lon="5.328">
        <ele>194</ele>
        <time>2009-08-30T16:33:42Z</time>
      </trkpt>
      <trkpt lat="47.08888" lon="5.32813">
        <ele>194</ele>
        <time>2009-08-30T16:33:47Z</time>
      </trkpt>
      <trkpt lat="47.08844" lon="5.32867">
        <ele>194</ele>
        <time>2009-08-30T16:33:59Z</time>
      </trkpt>
      <trkpt lat="47.08826" lon="5.32967">
        <ele>194</ele>
        <time>2009-08-30T16:34:11Z</time>
      </trkpt>
      <trkpt lat="47.08813" lon="5.33072">
        <ele>193</ele>
        <time>2009-08-30T16:34:25Z</time>
      </trkpt>
      <trkpt lat="47.08806" lon="5.33129">
        <ele>194</ele>
        <time>2009-08-30T16:34:34Z</time>
      </trkpt>
      <trkpt lat="47.088" lon="5.33246">
        <ele>194</ele>
        <time>2009-08-30T16:34:50Z</time>
      </trkpt>
      <trkpt lat="47.088" lon="5.33276">
        <ele>194</ele>
        <time>2009-08-30T16:34:54Z</time>
      </trkpt>
      <trkpt lat="47.08798" lon="5.33306">
        <ele>194</ele>
        <time>2009-08-30T16:34:58Z</time>
      </trkpt>
      <trkpt lat="47.08796" lon="5.33401">
        <ele>194</ele>
        <time>2009-08-30T16:35:11Z</time>
      </trkpt>
      <trkpt lat="47.08797" lon="5.3346">
        <ele>194</ele>
        <time>2009-08-30T16:35:19Z</time>
      </trkpt>
      <trkpt lat="47.08794" lon="5.3349">
        <ele>194</ele>
        <time>2009-08-30T16:35:23Z</time>
      </trkpt>
      <trkpt lat="47.08789" lon="5.3352">
        <ele>194</ele>
        <time>2009-08-30T16:35:28Z</time>
      </trkpt>
      <trkpt lat="47.08782" lon="5.33571">
        <ele>193</ele>
        <time>2009-08-30T16:35:40Z</time>
      </trkpt>
      <trkpt lat="47.0877" lon="5.33607">
        <ele>194</ele>
        <time>2009-08-30T16:35:48Z</time>
      </trkpt>
      <trkpt lat="47.08763" lon="5.33634">
        <ele>194</ele>
        <time>2009-08-30T16:35:53Z</time>
      </trkpt>
      <trkpt lat="47.08726" lon="5.3369">
        <ele>194</ele>
        <time>2009-08-30T16:36:05Z</time>
      </trkpt>
      <trkpt lat="47.08709" lon="5.33734">
        <ele>194</ele>
        <time>2009-08-30T16:36:12Z</time>
      </trkpt>
      <trkpt lat="47.08696" lon="5.33802">
        <ele>194</ele>
        <time>2009-08-30T16:36:20Z</time>
      </trkpt>
      <trkpt lat="47.08687" lon="5.33851">
        <ele>194</ele>
        <time>2009-08-30T16:36:26Z</time>
      </trkpt>
      <trkpt lat="47.08678" lon="5.33893">
        <ele>194</ele>
        <time>2009-08-30T16:36:32Z</time>
      </trkpt>
      <trkpt lat="47.08668" lon="5.33916">
        <ele>195</ele>
        <time>2009-08-30T16:36:36Z</time>
      </trkpt>
      <trkpt lat="47.08651" lon="5.33946">
        <ele>194</ele>
        <time>2009-08-30T16:36:41Z</time>
      </trkpt>
      <trkpt lat="47.08644" lon="5.33957">
        <ele>194</ele>
        <time>2009-08-30T16:36:43Z</time>
      </trkpt>
      <trkpt lat="47.08636" lon="5.33974">
        <ele>194</ele>
        <time>2009-08-30T16:36:46Z</time>
      </trkpt>
      <trkpt lat="47.08644" lon="5.33996">
        <ele>194</ele>
        <time>2009-08-30T16:36:48Z</time>
      </trkpt>
      <trkpt lat="47.08639" lon="5.34044">
        <ele>195</ele>
        <time>2009-08-30T16:36:54Z</time>
      </trkpt>
      <trkpt lat="47.08638" lon="5.34082">
        <ele>194</ele>
        <time>2009-08-30T16:36:59Z</time>
      </trkpt>
      <trkpt lat="47.08633" lon="5.34112">
        <ele>194</ele>
        <time>2009-08-30T16:37:03Z</time>
      </trkpt>
      <trkpt lat="47.08634" lon="5.34136">
        <ele>194</ele>
        <time>2009-08-30T16:37:06Z</time>
      </trkpt>
      <trkpt lat="47.0863" lon="5.34211">
        <ele>195</ele>
        <time>2009-08-30T16:37:16Z</time>
      </trkpt>
      <trkpt lat="47.08628" lon="5.34233">
        <ele>195</ele>
        <time>2009-08-30T16:37:19Z</time>
      </trkpt>
      <trkpt lat="47.08617" lon="5.34272">
        <ele>194</ele>
        <time>2009-08-30T16:37:28Z</time>
      </trkpt>
      <trkpt lat="47.08615" lon="5.34327">
        <ele>194</ele>
        <time>2009-08-30T16:37:34Z</time>
      </trkpt>
      <trkpt lat="47.08612" lon="5.34345">
        <ele>194</ele>
        <time>2009-08-30T16:37:37Z</time>
      </trkpt>
      <trkpt lat="47.08603" lon="5.34379">
        <ele>194</ele>
        <time>2009-08-30T16:37:43Z</time>
      </trkpt>
      <trkpt lat="47.086" lon="5.344">
        <ele>194</ele>
        <time>2009-08-30T16:37:46Z</time>
      </trkpt>
      <trkpt lat="47.08582" lon="5.3449">
        <ele>195</ele>
        <time>2009-08-30T16:38:01Z</time>
      </trkpt>
      <trkpt lat="47.08581" lon="5.34497">
        <ele>194</ele>
        <time>2009-08-30T16:38:02Z</time>
      </trkpt>
      <trkpt lat="47.08571" lon="5.34528">
        <ele>195</ele>
        <time>2009-08-30T16:38:07Z</time>
      </trkpt>
      <trkpt lat="47.08567" lon="5.34543">
        <ele>195</ele>
        <time>2009-08-30T16:38:09Z</time>
      </trkpt>
      <trkpt lat="47.0856" lon="5.34607">
        <ele>194</ele>
        <time>2009-08-30T16:38:20Z</time>
      </trkpt>
      <trkpt lat="47.08547" lon="5.34659">
        <ele>195</ele>
        <time>2009-08-30T16:38:28Z</time>
      </trkpt>
      <trkpt lat="47.08536" lon="5.34703">
        <ele>195</ele>
        <time>2009-08-30T16:38:38Z</time>
      </trkpt>
      <trkpt lat="47.08522" lon="5.34751">
        <ele>195</ele>
        <time>2009-08-30T16:38:46Z</time>
      </trkpt>
      <trkpt lat="47.08509" lon="5.34826">
        <ele>195</ele>
        <time>2009-08-30T16:38:59Z</time>
      </trkpt>
      <trkpt lat="47.08496" lon="5.34895">
        <ele>195</ele>
        <time>2009-08-30T16:39:10Z</time>
      </trkpt>
      <trkpt lat="47.08478" lon="5.34973">
        <ele>195</ele>
        <time>2009-08-30T16:39:22Z</time>
      </trkpt>
      <trkpt lat="47.08452" lon="5.35076">
        <ele>195</ele>
        <time>2009-08-30T16:39:38Z</time>
      </trkpt>
      <trkpt lat="47.0844" lon="5.35155">
        <ele>195</ele>
        <time>2009-08-30T16:39:49Z</time>
      </trkpt>
      <trkpt lat="47.0843" lon="5.35245">
        <ele>195</ele>
        <time>2009-08-30T16:40:02Z</time>
      </trkpt>
      <trkpt lat="47.08418" lon="5.35313">
        <ele>195</ele>
        <time>2009-08-30T16:40:14Z</time>
      </trkpt>
      <trkpt lat="47.08409" lon="5.35402">
        <ele>195</ele>
        <time>2009-08-30T16:40:28Z</time>
      </trkpt>
      <trkpt lat="47.08388" lon="5.35511">
        <ele>195</ele>
        <time>2009-08-30T16:40:45Z</time>
      </trkpt>
      <trkpt lat="47.08385" lon="5.35588">
        <ele>198</ele>
        <time>2009-08-30T16:40:58Z</time>
      </trkpt>
      <trkpt lat="47.08377" lon="5.35649">
        <ele>196</ele>
        <time>2009-08-30T16:41:10Z</time>
      </trkpt>
      <trkpt lat="47.08373" lon="5.35661">
        <ele>196</ele>
        <time>2009-08-30T16:41:12Z</time>
      </trkpt>
      <trkpt lat="47.0837" lon="5.35685">
        <ele>196</ele>
        <time>2009-08-30T16:41:16Z</time>
      </trkpt>
      <trkpt lat="47.08362" lon="5.35709">
        <ele>196</ele>
        <time>2009-08-30T16:41:20Z</time>
      </trkpt>
      <trkpt lat="47.08342" lon="5.35769">
        <ele>196</ele>
        <time>2009-08-30T16:41:33Z</time>
      </trkpt>
      <trkpt lat="47.08315" lon="5.358">
        <ele>196</ele>
        <time>2009-08-30T16:41:43Z</time>
      </trkpt>
      <trkpt lat="47.08291" lon="5.35833">
        <ele>196</ele>
        <time>2009-08-30T16:41:54Z</time>
      </trkpt>
      <trkpt lat="47.08258" lon="5.35861">
        <ele>197</ele>
        <time>2009-08-30T16:42:06Z</time>
      </trkpt>
      <trkpt lat="47.08219" lon="5.35891">
        <ele>197</ele>
        <time>2009-08-30T16:42:19Z</time>
      </trkpt>
      <trkpt lat="47.08196" lon="5.35907">
        <ele>197</ele>
        <time>2009-08-30T16:42:29Z</time>
      </trkpt>
      <trkpt lat="47.08148" lon="5.35942">
        <ele>197</ele>
        <time>2009-08-30T16:42:41Z</time>
      </trkpt>
      <trkpt lat="47.08093" lon="5.35955">
        <ele>197</ele>
        <time>2009-08-30T16:42:52Z</time>
      </trkpt>
      <trkpt lat="47.08083" lon="5.35956">
        <ele>197</ele>
        <time>2009-08-30T16:42:54Z</time>
      </trkpt>
      <trkpt lat="47.08047" lon="5.3597">
        <ele>197</ele>
        <time>2009-08-30T16:43:02Z</time>
      </trkpt>
      <trkpt lat="47.08018" lon="5.35996">
        <ele>197</ele>
        <time>2009-08-30T16:43:09Z</time>
      </trkpt>
      <trkpt lat="47.07964" lon="5.36037">
        <ele>197</ele>
        <time>2009-08-30T16:43:21Z</time>
      </trkpt>
      <trkpt lat="47.07903" lon="5.36057">
        <ele>198</ele>
        <time>2009-08-30T16:43:32Z</time>
      </trkpt>
      <trkpt lat="47.07853" lon="5.36086">
        <ele>198</ele>
        <time>2009-08-30T16:43:44Z</time>
      </trkpt>
      <trkpt lat="47.07791" lon="5.36136">
        <ele>198</ele>
        <time>2009-08-30T16:43:57Z</time>
      </trkpt>
      <trkpt lat="47.0772" lon="5.36185">
        <ele>198</ele>
        <time>2009-08-30T16:44:11Z</time>
      </trkpt>
      <trkpt lat="47.07665" lon="5.36212">
        <ele>198</ele>
        <time>2009-08-30T16:44:25Z</time>
      </trkpt>
      <trkpt lat="47.0761" lon="5.3624">
        <ele>198</ele>
        <time>2009-08-30T16:44:39Z</time>
      </trkpt>
      <trkpt lat="47.07543" lon="5.3628">
        <ele>198</ele>
        <time>2009-08-30T16:44:52Z</time>
      </trkpt>
      <trkpt lat="47.07513" lon="5.36297">
        <ele>198</ele>
        <time>2009-08-30T16:44:58Z</time>
      </trkpt>
      <trkpt lat="47.07438" lon="5.3635">
        <ele>199</ele>
        <time>2009-08-30T16:45:14Z</time>
      </trkpt>
      <trkpt lat="47.07409" lon="5.36366">
        <ele>199</ele>
        <time>2009-08-30T16:45:21Z</time>
      </trkpt>
      <trkpt lat="47.0738" lon="5.36383">
        <ele>199</ele>
        <time>2009-08-30T16:45:28Z</time>
      </trkpt>
      <trkpt lat="47.07364" lon="5.36395">
        <ele>199</ele>
        <time>2009-08-30T16:45:32Z</time>
      </trkpt>
      <trkpt lat="47.07335" lon="5.36423">
        <ele>199</ele>
        <time>2009-08-30T16:45:39Z</time>
      </trkpt>
      <trkpt lat="47.07318" lon="5.36461">
        <ele>200</ele>
        <time>2009-08-30T16:45:46Z</time>
      </trkpt>
      <trkpt lat="47.07294" lon="5.36484">
        <ele>200</ele>
        <time>2009-08-30T16:45:50Z</time>
      </trkpt>
      <trkpt lat="47.07264" lon="5.36571">
        <ele>200</ele>
        <time>2009-08-30T16:46:05Z</time>
      </trkpt>
      <trkpt lat="47.0723" lon="5.3667">
        <ele>200</ele>
        <time>2009-08-30T16:46:22Z</time>
      </trkpt>
      <trkpt lat="47.07226" lon="5.36682">
        <ele>200</ele>
        <time>2009-08-30T16:46:24Z</time>
      </trkpt>
      <trkpt lat="47.07187" lon="5.36797">
        <ele>200</ele>
        <time>2009-08-30T16:46:42Z</time>
      </trkpt>
      <trkpt lat="47.07155" lon="5.36914">
        <ele>200</ele>
        <time>2009-08-30T16:46:58Z</time>
      </trkpt>
      <trkpt lat="47.07134" lon="5.36986">
        <ele>201</ele>
        <time>2009-08-30T16:47:12Z</time>
      </trkpt>
      <trkpt lat="47.0713" lon="5.36999">
        <ele>202</ele>
        <time>2009-08-30T16:47:22Z</time>
      </trkpt>
      <trkpt lat="47.07112" lon="5.37045">
        <ele>201</ele>
        <time>2009-08-30T16:47:34Z</time>
      </trkpt>
      <trkpt lat="47.07087" lon="5.37115">
        <ele>201</ele>
        <time>2009-08-30T16:47:49Z</time>
      </trkpt>
      <trkpt lat="47.07077" lon="5.37144">
        <ele>201</ele>
        <time>2009-08-30T16:47:54Z</time>
      </trkpt>
      <trkpt lat="47.0704" lon="5.37251">
        <ele>201</ele>
        <time>2009-08-30T16:48:12Z</time>
      </trkpt>
      <trkpt lat="47.07021" lon="5.37304">
        <ele>201</ele>
        <time>2009-08-30T16:48:21Z</time>
      </trkpt>
      <trkpt lat="47.07011" lon="5.3733">
        <ele>201</ele>
        <time>2009-08-30T16:48:26Z</time>
      </trkpt>
      <trkpt lat="47.06967" lon="5.37461">
        <ele>201</ele>
        <time>2009-08-30T16:48:47Z</time>
      </trkpt>
      <trkpt lat="47.06931" lon="5.3756">
        <ele>201</ele>
        <time>2009-08-30T16:49:03Z</time>
      </trkpt>
      <trkpt lat="47.06892" lon="5.37681">
        <ele>200</ele>
        <time>2009-08-30T16:49:22Z</time>
      </trkpt>
      <trkpt lat="47.06876" lon="5.37736">
        <ele>200</ele>
        <time>2009-08-30T16:49:31Z</time>
      </trkpt>
      <trkpt lat="47.06872" lon="5.37768">
        <ele>200</ele>
        <time>2009-08-30T16:49:36Z</time>
      </trkpt>
      <trkpt lat="47.06843" lon="5.37849">
        <ele>200</ele>
        <time>2009-08-30T16:49:50Z</time>
      </trkpt>
      <trkpt lat="47.06817" lon="5.37896">
        <ele>200</ele>
        <time>2009-08-30T16:50:00Z</time>
      </trkpt>
      <trkpt lat="47.06804" lon="5.3796">
        <ele>200</ele>
        <time>2009-08-30T16:50:12Z</time>
      </trkpt>
      <trkpt lat="47.06782" lon="5.38009">
        <ele>200</ele>
        <time>2009-08-30T16:50:24Z</time>
      </trkpt>
      <trkpt lat="47.06756" lon="5.38053">
        <ele>201</ele>
        <time>2009-08-30T16:50:35Z</time>
      </trkpt>
      <trkpt lat="47.06736" lon="5.38111">
        <ele>200</ele>
        <time>2009-08-30T16:50:48Z</time>
      </trkpt>
      <trkpt lat="47.06703" lon="5.38156">
        <ele>201</ele>
        <time>2009-08-30T16:50:58Z</time>
      </trkpt>
      <trkpt lat="47.06693" lon="5.38175">
        <ele>201</ele>
        <time>2009-08-30T16:51:02Z</time>
      </trkpt>
      <trkpt lat="47.06667" lon="5.38231">
        <ele>201</ele>
        <time>2009-08-30T16:51:13Z</time>
      </trkpt>
      <trkpt lat="47.06661" lon="5.3824">
        <ele>201</ele>
        <time>2009-08-30T16:51:15Z</time>
      </trkpt>
      <trkpt lat="47.06652" lon="5.3826">
        <ele>200</ele>
        <time>2009-08-30T16:51:19Z</time>
      </trkpt>
      <trkpt lat="47.06629" lon="5.38345">
        <ele>200</ele>
        <time>2009-08-30T16:51:34Z</time>
      </trkpt>
      <trkpt lat="47.0661" lon="5.38393">
        <ele>201</ele>
        <time>2009-08-30T16:51:44Z</time>
      </trkpt>
      <trkpt lat="47.06583" lon="5.38446">
        <ele>201</ele>
        <time>2009-08-30T16:51:54Z</time>
      </trkpt>
      <trkpt lat="47.06581" lon="5.38453">
        <ele>201</ele>
        <time>2009-08-30T16:51:55Z</time>
      </trkpt>
      <trkpt lat="47.06578" lon="5.38482">
        <ele>201</ele>
        <time>2009-08-30T16:51:59Z</time>
      </trkpt>
      <trkpt lat="47.06573" lon="5.38523">
        <ele>201</ele>
        <time>2009-08-30T16:52:05Z</time>
      </trkpt>
      <trkpt lat="47.06571" lon="5.38565">
        <ele>201</ele>
        <time>2009-08-30T16:52:10Z</time>
      </trkpt>
      <trkpt lat="47.06571" lon="5.3859">
        <ele>201</ele>
        <time>2009-08-30T16:52:13Z</time>
      </trkpt>
      <trkpt lat="47.06566" lon="5.3865">
        <ele>200</ele>
        <time>2009-08-30T16:52:20Z</time>
      </trkpt>
      <trkpt lat="47.06532" lon="5.38739">
        <ele>202</ele>
        <time>2009-08-30T16:52:35Z</time>
      </trkpt>
      <trkpt lat="47.0653" lon="5.38755">
        <ele>203</ele>
        <time>2009-08-30T16:52:39Z</time>
      </trkpt>
      <trkpt lat="47.06525" lon="5.38778">
        <ele>202</ele>
        <time>2009-08-30T16:52:50Z</time>
      </trkpt>
      <trkpt lat="47.06502" lon="5.38826">
        <ele>202</ele>
        <time>2009-08-30T16:53:03Z</time>
      </trkpt>
      <trkpt lat="47.06477" lon="5.38885">
        <ele>202</ele>
        <time>2009-08-30T16:53:15Z</time>
      </trkpt>
      <trkpt lat="47.06454" lon="5.38924">
        <ele>202</ele>
        <time>2009-08-30T16:53:24Z</time>
      </trkpt>
      <trkpt lat="47.0642" lon="5.38965">
        <ele>202</ele>
        <time>2009-08-30T16:53:36Z</time>
      </trkpt>
      <trkpt lat="47.06389" lon="5.39016">
        <ele>202</ele>
        <time>2009-08-30T16:53:48Z</time>
      </trkpt>
      <trkpt lat="47.06367" lon="5.39085">
        <ele>202</ele>
        <time>2009-08-30T16:54:00Z</time>
      </trkpt>
      <trkpt lat="47.06342" lon="5.39175">
        <ele>202</ele>
        <time>2009-08-30T16:54:15Z</time>
      </trkpt>
      <trkpt lat="47.06326" lon="5.39221">
        <ele>203</ele>
        <time>2009-08-30T16:54:23Z</time>
      </trkpt>
      <trkpt lat="47.063" lon="5.3932">
        <ele>203</ele>
        <time>2009-08-30T16:54:39Z</time>
      </trkpt>
      <trkpt lat="47.06295" lon="5.39339">
        <ele>202</ele>
        <time>2009-08-30T16:54:42Z</time>
      </trkpt>
      <trkpt lat="47.06287" lon="5.39364">
        <ele>203</ele>
        <time>2009-08-30T16:54:46Z</time>
      </trkpt>
      <trkpt lat="47.06263" lon="5.39446">
        <ele>203</ele>
        <time>2009-08-30T16:55:00Z</time>
      </trkpt>
      <trkpt lat="47.06262" lon="5.3948">
        <ele>203</ele>
        <time>2009-08-30T16:55:06Z</time>
      </trkpt>
      <trkpt lat="47.06267" lon="5.39508">
        <ele>203</ele>
        <time>2009-08-30T16:55:12Z</time>
      </trkpt>
      <trkpt lat="47.06266" lon="5.39535">
        <ele>203</ele>
        <time>2009-08-30T16:55:18Z</time>
      </trkpt>
      <trkpt lat="47.06241" lon="5.39593">
        <ele>203</ele>
        <time>2009-08-30T16:55:32Z</time>
      </trkpt>
      <trkpt lat="47.06235" lon="5.39628">
        <ele>203</ele>
        <time>2009-08-30T16:55:38Z</time>
      </trkpt>
      <trkpt lat="47.06198" lon="5.39672">
        <ele>203</ele>
        <time>2009-08-30T16:55:49Z</time>
      </trkpt>
      <trkpt lat="47.06191" lon="5.39719">
        <ele>203</ele>
        <time>2009-08-30T16:55:58Z</time>
      </trkpt>
      <trkpt lat="47.06182" lon="5.39781">
        <ele>203</ele>
        <time>2009-08-30T16:56:08Z</time>
      </trkpt>
      <trkpt lat="47.06156" lon="5.39862">
        <ele>204</ele>
        <time>2009-08-30T16:56:21Z</time>
      </trkpt>
      <trkpt lat="47.06153" lon="5.39877">
        <ele>204</ele>
        <time>2009-08-30T16:56:23Z</time>
      </trkpt>
      <trkpt lat="47.06145" lon="5.39909">
        <ele>203</ele>
        <time>2009-08-30T16:56:27Z</time>
      </trkpt>
      <trkpt lat="47.06132" lon="5.39945">
        <ele>204</ele>
        <time>2009-08-30T16:56:32Z</time>
      </trkpt>
      <trkpt lat="47.06113" lon="5.3997">
        <ele>204</ele>
        <time>2009-08-30T16:56:36Z</time>
      </trkpt>
      <trkpt lat="47.06097" lon="5.4003">
        <ele>204</ele>
        <time>2009-08-30T16:56:45Z</time>
      </trkpt>
      <trkpt lat="47.06093" lon="5.40043">
        <ele>204</ele>
        <time>2009-08-30T16:56:47Z</time>
      </trkpt>
      <trkpt lat="47.06084" lon="5.40061">
        <ele>204</ele>
        <time>2009-08-30T16:56:50Z</time>
      </trkpt>
      <trkpt lat="47.06071" lon="5.40088">
        <ele>204</ele>
        <time>2009-08-30T16:56:55Z</time>
      </trkpt>
      <trkpt lat="47.06063" lon="5.40136">
        <ele>204</ele>
        <time>2009-08-30T16:57:02Z</time>
      </trkpt>
      <trkpt lat="47.06056" lon="5.40147">
        <ele>204</ele>
        <time>2009-08-30T16:57:04Z</time>
      </trkpt>
      <trkpt lat="47.06049" lon="5.40154">
        <ele>204</ele>
        <time>2009-08-30T16:57:06Z</time>
      </trkpt>
      <trkpt lat="47.06044" lon="5.40162">
        <ele>204</ele>
        <time>2009-08-30T16:57:08Z</time>
      </trkpt>
      <trkpt lat="47.06023" lon="5.40213">
        <ele>204</ele>
        <time>2009-08-30T16:57:19Z</time>
      </trkpt>
      <trkpt lat="47.05988" lon="5.40291">
        <ele>204</ele>
        <time>2009-08-30T16:57:35Z</time>
      </trkpt>
      <trkpt lat="47.05959" lon="5.40367">
        <ele>204</ele>
        <time>2009-08-30T16:57:50Z</time>
      </trkpt>
      <trkpt lat="47.05958" lon="5.40378">
        <ele>204</ele>
        <time>2009-08-30T16:57:52Z</time>
      </trkpt>
      <trkpt lat="47.05948" lon="5.40483">
        <ele>204</ele>
        <time>2009-08-30T16:58:08Z</time>
      </trkpt>
      <trkpt lat="47.0594" lon="5.40536">
        <ele>204</ele>
        <time>2009-08-30T16:58:19Z</time>
      </trkpt>
      <trkpt lat="47.05926" lon="5.40593">
        <ele>204</ele>
        <time>2009-08-30T16:58:31Z</time>
      </trkpt>
      <trkpt lat="47.05922" lon="5.40633">
        <ele>205</ele>
        <time>2009-08-30T16:58:38Z</time>
      </trkpt>
      <trkpt lat="47.05924" lon="5.40667">
        <ele>205</ele>
        <time>2009-08-30T16:58:43Z</time>
      </trkpt>
      <trkpt lat="47.05922" lon="5.40753">
        <ele>205</ele>
        <time>2009-08-30T16:58:57Z</time>
      </trkpt>
      <trkpt lat="47.05911" lon="5.4083">
        <ele>205</ele>
        <time>2009-08-30T16:59:11Z</time>
      </trkpt>
      <trkpt lat="47.05907" lon="5.40871">
        <ele>205</ele>
        <time>2009-08-30T16:59:21Z</time>
      </trkpt>
      <trkpt lat="47.05906" lon="5.40925">
        <ele>205</ele>
        <time>2009-08-30T16:59:32Z</time>
      </trkpt>
      <trkpt lat="47.05916" lon="5.41013">
        <ele>205</ele>
        <time>2009-08-30T16:59:44Z</time>
      </trkpt>
      <trkpt lat="47.05918" lon="5.4109">
        <ele>206</ele>
        <time>2009-08-30T16:59:55Z</time>
      </trkpt>
      <trkpt lat="47.0592" lon="5.41161">
        <ele>206</ele>
        <time>2009-08-30T17:00:06Z</time>
      </trkpt>
      <trkpt lat="47.05941" lon="5.41231">
        <ele>208</ele>
        <time>2009-08-30T17:00:16Z</time>
      </trkpt>
      <trkpt lat="47.05958" lon="5.41255">
        <ele>209</ele>
        <time>2009-08-30T17:00:22Z</time>
      </trkpt>
      <trkpt lat="47.05991" lon="5.41279">
        <ele>209</ele>
        <time>2009-08-30T17:00:30Z</time>
      </trkpt>
      <trkpt lat="47.06008" lon="5.41275">
        <ele>208</ele>
        <time>2009-08-30T17:00:40Z</time>
      </trkpt>
      <trkpt lat="47.06011" lon="5.41278">
        <ele>209</ele>
        <time>2009-08-30T17:01:11Z</time>
      </trkpt>
      <trkpt lat="47.06011" lon="5.41278">
        <ele>209</ele>
        <time>2009-08-30T17:01:25Z</time>
      </trkpt>
    </trkseg>
  </trk>
</gpx>